<?xml version="1.0" encoding="UTF-8" standalone="no" ?>
<gpx xmlns="http://www.topografix.com/GPX/1/1" xmlns:xsi="http://www.w3.org/2001/XMLSchema-instance" xsi:schemaLocation="http://www.topografix.com/GPX/1/1 http://www.topografix.com/GPX/1/1/gpx.xsd" version="1.1" creator="VisuGPX - https://www.visugpx.com">
  <metadata>
    <name>548_Circuit 76 km Les Herbiers_Les Herbiers édité par cth85.com</name>
    <desc><![CDATA[Circuit de 76 km passant par:
Les Herbiers
D755 La Gaubretière
D755 Les Landes Genusson
D37 Tiffauges
D753 La Romagne
Saint Christophe du Bois
Le Puy Saint Bonnet
Loublande
La Chapelle Largeau
Treize Vents via la pipaudière, l'audonnière
D11 Mallièvre
D72 Saint Malo du Bois
D752 Les Epesses
D11 Les Herbiers]]></desc>
  </metadata>
  <trk>
    <name><![CDATA[15493375-76_233bis]]></name>
    <trkseg>
      <trkpt lat="46.86382" lon="-1.00562">
        <ele>120</ele>
        <time>2022-09-05T08:44:45Z</time>
      </trkpt>
      <trkpt lat="46.86391" lon="-1.00556">
        <ele>120</ele>
        <time>2022-09-05T08:44:47Z</time>
      </trkpt>
      <trkpt lat="46.86426" lon="-1.00564">
        <ele>120</ele>
        <time>2022-09-05T08:44:53Z</time>
      </trkpt>
      <trkpt lat="46.86461" lon="-1.00561">
        <ele>120</ele>
        <time>2022-09-05T08:44:59Z</time>
      </trkpt>
      <trkpt lat="46.86495" lon="-1.00567">
        <ele>119</ele>
        <time>2022-09-05T08:45:05Z</time>
      </trkpt>
      <trkpt lat="46.86523" lon="-1.00577">
        <ele>118</ele>
        <time>2022-09-05T08:45:11Z</time>
      </trkpt>
      <trkpt lat="46.86573" lon="-1.00609">
        <ele>117</ele>
        <time>2022-09-05T08:45:20Z</time>
      </trkpt>
      <trkpt lat="46.86595" lon="-1.00621">
        <ele>116</ele>
        <time>2022-09-05T08:45:24Z</time>
      </trkpt>
      <trkpt lat="46.86664" lon="-1.00646">
        <ele>111</ele>
        <time>2022-09-05T08:45:37Z</time>
      </trkpt>
      <trkpt lat="46.86708" lon="-1.0066">
        <ele>111</ele>
        <time>2022-09-05T08:45:45Z</time>
      </trkpt>
      <trkpt lat="46.86712" lon="-1.00666">
        <ele>111</ele>
        <time>2022-09-05T08:45:46Z</time>
      </trkpt>
      <trkpt lat="46.86714" lon="-1.00674">
        <ele>111</ele>
        <time>2022-09-05T08:45:47Z</time>
      </trkpt>
      <trkpt lat="46.86765" lon="-1.00654">
        <ele>111</ele>
        <time>2022-09-05T08:45:57Z</time>
      </trkpt>
      <trkpt lat="46.86836" lon="-1.00634">
        <ele>112</ele>
        <time>2022-09-05T08:46:09Z</time>
      </trkpt>
      <trkpt lat="46.86853" lon="-1.00633">
        <ele>112</ele>
        <time>2022-09-05T08:46:12Z</time>
      </trkpt>
      <trkpt lat="46.86937" lon="-1.00661">
        <ele>109</ele>
        <time>2022-09-05T08:46:28Z</time>
      </trkpt>
      <trkpt lat="46.86948" lon="-1.00671">
        <ele>109</ele>
        <time>2022-09-05T08:46:30Z</time>
      </trkpt>
      <trkpt lat="46.86983" lon="-1.00859">
        <ele>105</ele>
        <time>2022-09-05T08:46:54Z</time>
      </trkpt>
      <trkpt lat="46.86999" lon="-1.00914">
        <ele>103</ele>
        <time>2022-09-05T08:47:01Z</time>
      </trkpt>
      <trkpt lat="46.86998" lon="-1.00924">
        <ele>103</ele>
        <time>2022-09-05T08:47:02Z</time>
      </trkpt>
      <trkpt lat="46.87003" lon="-1.00927">
        <ele>103</ele>
        <time>2022-09-05T08:47:03Z</time>
      </trkpt>
      <trkpt lat="46.87003" lon="-1.00933">
        <ele>103</ele>
        <time>2022-09-05T08:47:04Z</time>
      </trkpt>
      <trkpt lat="46.87001" lon="-1.00935">
        <ele>103</ele>
        <time>2022-09-05T08:47:04Z</time>
      </trkpt>
      <trkpt lat="46.87006" lon="-1.00942">
        <ele>102</ele>
        <time>2022-09-05T08:47:06Z</time>
      </trkpt>
      <trkpt lat="46.8704" lon="-1.0106">
        <ele>102</ele>
        <time>2022-09-05T08:47:21Z</time>
      </trkpt>
      <trkpt lat="46.87064" lon="-1.01137">
        <ele>103</ele>
        <time>2022-09-05T08:47:31Z</time>
      </trkpt>
      <trkpt lat="46.87114" lon="-1.01307">
        <ele>108</ele>
        <time>2022-09-05T08:47:54Z</time>
      </trkpt>
      <trkpt lat="46.87115" lon="-1.0132">
        <ele>108</ele>
        <time>2022-09-05T08:47:56Z</time>
      </trkpt>
      <trkpt lat="46.87143" lon="-1.01312">
        <ele>109</ele>
        <time>2022-09-05T08:48:01Z</time>
      </trkpt>
      <trkpt lat="46.87211" lon="-1.01301">
        <ele>110</ele>
        <time>2022-09-05T08:48:13Z</time>
      </trkpt>
      <trkpt lat="46.8728" lon="-1.01272">
        <ele>110</ele>
        <time>2022-09-05T08:48:26Z</time>
      </trkpt>
      <trkpt lat="46.87288" lon="-1.01272">
        <ele>110</ele>
        <time>2022-09-05T08:48:27Z</time>
      </trkpt>
      <trkpt lat="46.87295" lon="-1.01275">
        <ele>110</ele>
        <time>2022-09-05T08:48:28Z</time>
      </trkpt>
      <trkpt lat="46.87303" lon="-1.01285">
        <ele>110</ele>
        <time>2022-09-05T08:48:30Z</time>
      </trkpt>
      <trkpt lat="46.87307" lon="-1.01302">
        <ele>111</ele>
        <time>2022-09-05T08:48:32Z</time>
      </trkpt>
      <trkpt lat="46.87325" lon="-1.01387">
        <ele>113</ele>
        <time>2022-09-05T08:48:43Z</time>
      </trkpt>
      <trkpt lat="46.87325" lon="-1.01397">
        <ele>113</ele>
        <time>2022-09-05T08:48:44Z</time>
      </trkpt>
      <trkpt lat="46.87329" lon="-1.0141">
        <ele>114</ele>
        <time>2022-09-05T08:48:46Z</time>
      </trkpt>
      <trkpt lat="46.87343" lon="-1.01481">
        <ele>115</ele>
        <time>2022-09-05T08:48:55Z</time>
      </trkpt>
      <trkpt lat="46.87337" lon="-1.01488">
        <ele>115</ele>
        <time>2022-09-05T08:48:57Z</time>
      </trkpt>
      <trkpt lat="46.87317" lon="-1.01498">
        <ele>115</ele>
        <time>2022-09-05T08:49:00Z</time>
      </trkpt>
      <trkpt lat="46.87283" lon="-1.0151">
        <ele>115</ele>
        <time>2022-09-05T08:49:06Z</time>
      </trkpt>
      <trkpt lat="46.87204" lon="-1.01532">
        <ele>113</ele>
        <time>2022-09-05T08:49:21Z</time>
      </trkpt>
      <trkpt lat="46.87206" lon="-1.01546">
        <ele>113</ele>
        <time>2022-09-05T08:49:23Z</time>
      </trkpt>
      <trkpt lat="46.87215" lon="-1.01585">
        <ele>114</ele>
        <time>2022-09-05T08:49:28Z</time>
      </trkpt>
      <trkpt lat="46.87216" lon="-1.01642">
        <ele>114</ele>
        <time>2022-09-05T08:49:34Z</time>
      </trkpt>
      <trkpt lat="46.87212" lon="-1.01656">
        <ele>114</ele>
        <time>2022-09-05T08:49:36Z</time>
      </trkpt>
      <trkpt lat="46.87215" lon="-1.01705">
        <ele>114</ele>
        <time>2022-09-05T08:49:42Z</time>
      </trkpt>
      <trkpt lat="46.87229" lon="-1.01816">
        <ele>113</ele>
        <time>2022-09-05T08:49:56Z</time>
      </trkpt>
      <trkpt lat="46.87393" lon="-1.01939">
        <ele>110</ele>
        <time>2022-09-05T08:50:29Z</time>
      </trkpt>
      <trkpt lat="46.87456" lon="-1.01984">
        <ele>110</ele>
        <time>2022-09-05T08:50:41Z</time>
      </trkpt>
      <trkpt lat="46.87667" lon="-1.02144">
        <ele>116</ele>
        <time>2022-09-05T08:51:24Z</time>
      </trkpt>
      <trkpt lat="46.87685" lon="-1.0215">
        <ele>116</ele>
        <time>2022-09-05T08:51:27Z</time>
      </trkpt>
      <trkpt lat="46.87691" lon="-1.02136">
        <ele>116</ele>
        <time>2022-09-05T08:51:29Z</time>
      </trkpt>
      <trkpt lat="46.87698" lon="-1.02133">
        <ele>116</ele>
        <time>2022-09-05T08:51:30Z</time>
      </trkpt>
      <trkpt lat="46.87704" lon="-1.02136">
        <ele>116</ele>
        <time>2022-09-05T08:51:31Z</time>
      </trkpt>
      <trkpt lat="46.87707" lon="-1.02142">
        <ele>116</ele>
        <time>2022-09-05T08:51:32Z</time>
      </trkpt>
      <trkpt lat="46.87708" lon="-1.02148">
        <ele>116</ele>
        <time>2022-09-05T08:51:33Z</time>
      </trkpt>
      <trkpt lat="46.87704" lon="-1.02165">
        <ele>116</ele>
        <time>2022-09-05T08:51:35Z</time>
      </trkpt>
      <trkpt lat="46.87724" lon="-1.02188">
        <ele>116</ele>
        <time>2022-09-05T08:51:40Z</time>
      </trkpt>
      <trkpt lat="46.88171" lon="-1.02526">
        <ele>119</ele>
        <time>2022-09-05T08:53:09Z</time>
      </trkpt>
      <trkpt lat="46.88173" lon="-1.02521">
        <ele>120</ele>
        <time>2022-09-05T08:53:10Z</time>
      </trkpt>
      <trkpt lat="46.8818" lon="-1.02515">
        <ele>120</ele>
        <time>2022-09-05T08:53:11Z</time>
      </trkpt>
      <trkpt lat="46.88188" lon="-1.02515">
        <ele>120</ele>
        <time>2022-09-05T08:53:13Z</time>
      </trkpt>
      <trkpt lat="46.88192" lon="-1.02518">
        <ele>120</ele>
        <time>2022-09-05T08:53:14Z</time>
      </trkpt>
      <trkpt lat="46.88197" lon="-1.0253">
        <ele>120</ele>
        <time>2022-09-05T08:53:15Z</time>
      </trkpt>
      <trkpt lat="46.88196" lon="-1.02544">
        <ele>119</ele>
        <time>2022-09-05T08:53:17Z</time>
      </trkpt>
      <trkpt lat="46.88642" lon="-1.02881">
        <ele>126</ele>
        <time>2022-09-05T08:54:46Z</time>
      </trkpt>
      <trkpt lat="46.88692" lon="-1.02919">
        <ele>126</ele>
        <time>2022-09-05T08:54:56Z</time>
      </trkpt>
      <trkpt lat="46.88723" lon="-1.02946">
        <ele>126</ele>
        <time>2022-09-05T08:55:03Z</time>
      </trkpt>
      <trkpt lat="46.8875" lon="-1.02974">
        <ele>125</ele>
        <time>2022-09-05T08:55:09Z</time>
      </trkpt>
      <trkpt lat="46.88769" lon="-1.03">
        <ele>124</ele>
        <time>2022-09-05T08:55:13Z</time>
      </trkpt>
      <trkpt lat="46.88785" lon="-1.03027">
        <ele>123</ele>
        <time>2022-09-05T08:55:18Z</time>
      </trkpt>
      <trkpt lat="46.88803" lon="-1.03063">
        <ele>123</ele>
        <time>2022-09-05T08:55:23Z</time>
      </trkpt>
      <trkpt lat="46.88819" lon="-1.03102">
        <ele>122</ele>
        <time>2022-09-05T08:55:29Z</time>
      </trkpt>
      <trkpt lat="46.88831" lon="-1.0314">
        <ele>122</ele>
        <time>2022-09-05T08:55:34Z</time>
      </trkpt>
      <trkpt lat="46.88873" lon="-1.03117">
        <ele>123</ele>
        <time>2022-09-05T08:55:42Z</time>
      </trkpt>
      <trkpt lat="46.88894" lon="-1.03109">
        <ele>123</ele>
        <time>2022-09-05T08:55:46Z</time>
      </trkpt>
      <trkpt lat="46.88914" lon="-1.03108">
        <ele>123</ele>
        <time>2022-09-05T08:55:49Z</time>
      </trkpt>
      <trkpt lat="46.8894" lon="-1.03113">
        <ele>123</ele>
        <time>2022-09-05T08:55:54Z</time>
      </trkpt>
      <trkpt lat="46.88956" lon="-1.0312">
        <ele>123</ele>
        <time>2022-09-05T08:55:57Z</time>
      </trkpt>
      <trkpt lat="46.88978" lon="-1.03135">
        <ele>123</ele>
        <time>2022-09-05T08:56:01Z</time>
      </trkpt>
      <trkpt lat="46.89866" lon="-1.03803">
        <ele>127</ele>
        <time>2022-09-05T08:58:59Z</time>
      </trkpt>
      <trkpt lat="46.90116" lon="-1.03991">
        <ele>126</ele>
        <time>2022-09-05T08:59:49Z</time>
      </trkpt>
      <trkpt lat="46.90142" lon="-1.04019">
        <ele>125</ele>
        <time>2022-09-05T08:59:54Z</time>
      </trkpt>
      <trkpt lat="46.90158" lon="-1.04048">
        <ele>123</ele>
        <time>2022-09-05T08:59:59Z</time>
      </trkpt>
      <trkpt lat="46.90172" lon="-1.04084">
        <ele>122</ele>
        <time>2022-09-05T09:00:04Z</time>
      </trkpt>
      <trkpt lat="46.9018" lon="-1.04129">
        <ele>120</ele>
        <time>2022-09-05T09:00:10Z</time>
      </trkpt>
      <trkpt lat="46.90183" lon="-1.04248">
        <ele>118</ele>
        <time>2022-09-05T09:00:24Z</time>
      </trkpt>
      <trkpt lat="46.90188" lon="-1.043">
        <ele>118</ele>
        <time>2022-09-05T09:00:31Z</time>
      </trkpt>
      <trkpt lat="46.90195" lon="-1.04308">
        <ele>118</ele>
        <time>2022-09-05T09:00:32Z</time>
      </trkpt>
      <trkpt lat="46.90198" lon="-1.04316">
        <ele>118</ele>
        <time>2022-09-05T09:00:33Z</time>
      </trkpt>
      <trkpt lat="46.90231" lon="-1.04339">
        <ele>118</ele>
        <time>2022-09-05T09:00:40Z</time>
      </trkpt>
      <trkpt lat="46.90342" lon="-1.04391">
        <ele>120</ele>
        <time>2022-09-05T09:01:00Z</time>
      </trkpt>
      <trkpt lat="46.90409" lon="-1.0442">
        <ele>121</ele>
        <time>2022-09-05T09:01:13Z</time>
      </trkpt>
      <trkpt lat="46.90491" lon="-1.04443">
        <ele>120</ele>
        <time>2022-09-05T09:01:28Z</time>
      </trkpt>
      <trkpt lat="46.90535" lon="-1.0445">
        <ele>121</ele>
        <time>2022-09-05T09:01:36Z</time>
      </trkpt>
      <trkpt lat="46.9058" lon="-1.04454">
        <ele>123</ele>
        <time>2022-09-05T09:01:44Z</time>
      </trkpt>
      <trkpt lat="46.90698" lon="-1.04449">
        <ele>123</ele>
        <time>2022-09-05T09:02:05Z</time>
      </trkpt>
      <trkpt lat="46.90865" lon="-1.04437">
        <ele>120</ele>
        <time>2022-09-05T09:02:34Z</time>
      </trkpt>
      <trkpt lat="46.9091" lon="-1.04436">
        <ele>117</ele>
        <time>2022-09-05T09:02:42Z</time>
      </trkpt>
      <trkpt lat="46.90965" lon="-1.0444">
        <ele>114</ele>
        <time>2022-09-05T09:02:52Z</time>
      </trkpt>
      <trkpt lat="46.90992" lon="-1.04444">
        <ele>112</ele>
        <time>2022-09-05T09:02:57Z</time>
      </trkpt>
      <trkpt lat="46.91055" lon="-1.04461">
        <ele>115</ele>
        <time>2022-09-05T09:03:08Z</time>
      </trkpt>
      <trkpt lat="46.91105" lon="-1.04479">
        <ele>118</ele>
        <time>2022-09-05T09:03:18Z</time>
      </trkpt>
      <trkpt lat="46.91153" lon="-1.04501">
        <ele>121</ele>
        <time>2022-09-05T09:03:27Z</time>
      </trkpt>
      <trkpt lat="46.91185" lon="-1.04517">
        <ele>122</ele>
        <time>2022-09-05T09:03:33Z</time>
      </trkpt>
      <trkpt lat="46.91622" lon="-1.04732">
        <ele>138</ele>
        <time>2022-09-05T09:04:55Z</time>
      </trkpt>
      <trkpt lat="46.91719" lon="-1.04789">
        <ele>142</ele>
        <time>2022-09-05T09:05:13Z</time>
      </trkpt>
      <trkpt lat="46.91797" lon="-1.04831">
        <ele>146</ele>
        <time>2022-09-05T09:05:28Z</time>
      </trkpt>
      <trkpt lat="46.91893" lon="-1.0488">
        <ele>150</ele>
        <time>2022-09-05T09:05:46Z</time>
      </trkpt>
      <trkpt lat="46.9206" lon="-1.0496">
        <ele>155</ele>
        <time>2022-09-05T09:06:17Z</time>
      </trkpt>
      <trkpt lat="46.92188" lon="-1.05024">
        <ele>160</ele>
        <time>2022-09-05T09:06:41Z</time>
      </trkpt>
      <trkpt lat="46.93146" lon="-1.05491">
        <ele>181</ele>
        <time>2022-09-05T09:09:41Z</time>
      </trkpt>
      <trkpt lat="46.93149" lon="-1.05482">
        <ele>181</ele>
        <time>2022-09-05T09:09:42Z</time>
      </trkpt>
      <trkpt lat="46.93154" lon="-1.05476">
        <ele>181</ele>
        <time>2022-09-05T09:09:43Z</time>
      </trkpt>
      <trkpt lat="46.9316" lon="-1.05472">
        <ele>182</ele>
        <time>2022-09-05T09:09:45Z</time>
      </trkpt>
      <trkpt lat="46.93166" lon="-1.05471">
        <ele>182</ele>
        <time>2022-09-05T09:09:46Z</time>
      </trkpt>
      <trkpt lat="46.93173" lon="-1.05472">
        <ele>182</ele>
        <time>2022-09-05T09:09:47Z</time>
      </trkpt>
      <trkpt lat="46.93179" lon="-1.05477">
        <ele>182</ele>
        <time>2022-09-05T09:09:48Z</time>
      </trkpt>
      <trkpt lat="46.93184" lon="-1.05484">
        <ele>182</ele>
        <time>2022-09-05T09:09:49Z</time>
      </trkpt>
      <trkpt lat="46.93186" lon="-1.05493">
        <ele>182</ele>
        <time>2022-09-05T09:09:51Z</time>
      </trkpt>
      <trkpt lat="46.93187" lon="-1.05503">
        <ele>182</ele>
        <time>2022-09-05T09:09:52Z</time>
      </trkpt>
      <trkpt lat="46.93186" lon="-1.05513">
        <ele>181</ele>
        <time>2022-09-05T09:09:53Z</time>
      </trkpt>
      <trkpt lat="46.9335" lon="-1.05592">
        <ele>185</ele>
        <time>2022-09-05T09:10:24Z</time>
      </trkpt>
      <trkpt lat="46.93427" lon="-1.05625">
        <ele>187</ele>
        <time>2022-09-05T09:10:38Z</time>
      </trkpt>
      <trkpt lat="46.93514" lon="-1.05652">
        <ele>186</ele>
        <time>2022-09-05T09:10:54Z</time>
      </trkpt>
      <trkpt lat="46.93562" lon="-1.0567">
        <ele>184</ele>
        <time>2022-09-05T09:11:03Z</time>
      </trkpt>
      <trkpt lat="46.93582" lon="-1.0568">
        <ele>184</ele>
        <time>2022-09-05T09:11:06Z</time>
      </trkpt>
      <trkpt lat="46.93628" lon="-1.05709">
        <ele>181</ele>
        <time>2022-09-05T09:11:15Z</time>
      </trkpt>
      <trkpt lat="46.93688" lon="-1.05752">
        <ele>177</ele>
        <time>2022-09-05T09:11:27Z</time>
      </trkpt>
      <trkpt lat="46.93716" lon="-1.0578">
        <ele>176</ele>
        <time>2022-09-05T09:11:33Z</time>
      </trkpt>
      <trkpt lat="46.9373" lon="-1.05799">
        <ele>175</ele>
        <time>2022-09-05T09:11:37Z</time>
      </trkpt>
      <trkpt lat="46.93745" lon="-1.05826">
        <ele>173</ele>
        <time>2022-09-05T09:11:41Z</time>
      </trkpt>
      <trkpt lat="46.9376" lon="-1.05862">
        <ele>173</ele>
        <time>2022-09-05T09:11:46Z</time>
      </trkpt>
      <trkpt lat="46.93767" lon="-1.05887">
        <ele>173</ele>
        <time>2022-09-05T09:11:49Z</time>
      </trkpt>
      <trkpt lat="46.93782" lon="-1.05971">
        <ele>172</ele>
        <time>2022-09-05T09:12:00Z</time>
      </trkpt>
      <trkpt lat="46.9379" lon="-1.06003">
        <ele>171</ele>
        <time>2022-09-05T09:12:04Z</time>
      </trkpt>
      <trkpt lat="46.938" lon="-1.0603">
        <ele>170</ele>
        <time>2022-09-05T09:12:08Z</time>
      </trkpt>
      <trkpt lat="46.93826" lon="-1.06084">
        <ele>169</ele>
        <time>2022-09-05T09:12:16Z</time>
      </trkpt>
      <trkpt lat="46.93847" lon="-1.06118">
        <ele>167</ele>
        <time>2022-09-05T09:12:21Z</time>
      </trkpt>
      <trkpt lat="46.9387" lon="-1.06147">
        <ele>166</ele>
        <time>2022-09-05T09:12:27Z</time>
      </trkpt>
      <trkpt lat="46.93905" lon="-1.06187">
        <ele>164</ele>
        <time>2022-09-05T09:12:35Z</time>
      </trkpt>
      <trkpt lat="46.93925" lon="-1.06205">
        <ele>164</ele>
        <time>2022-09-05T09:12:39Z</time>
      </trkpt>
      <trkpt lat="46.93954" lon="-1.06226">
        <ele>163</ele>
        <time>2022-09-05T09:12:44Z</time>
      </trkpt>
      <trkpt lat="46.94025" lon="-1.06262">
        <ele>162</ele>
        <time>2022-09-05T09:12:58Z</time>
      </trkpt>
      <trkpt lat="46.94055" lon="-1.06279">
        <ele>160</ele>
        <time>2022-09-05T09:13:04Z</time>
      </trkpt>
      <trkpt lat="46.94113" lon="-1.06323">
        <ele>156</ele>
        <time>2022-09-05T09:13:15Z</time>
      </trkpt>
      <trkpt lat="46.94129" lon="-1.06343">
        <ele>155</ele>
        <time>2022-09-05T09:13:19Z</time>
      </trkpt>
      <trkpt lat="46.94152" lon="-1.06385">
        <ele>153</ele>
        <time>2022-09-05T09:13:25Z</time>
      </trkpt>
      <trkpt lat="46.94158" lon="-1.06392">
        <ele>152</ele>
        <time>2022-09-05T09:13:27Z</time>
      </trkpt>
      <trkpt lat="46.9418" lon="-1.06406">
        <ele>151</ele>
        <time>2022-09-05T09:13:31Z</time>
      </trkpt>
      <trkpt lat="46.94245" lon="-1.06441">
        <ele>148</ele>
        <time>2022-09-05T09:13:43Z</time>
      </trkpt>
      <trkpt lat="46.9425" lon="-1.06446">
        <ele>148</ele>
        <time>2022-09-05T09:13:44Z</time>
      </trkpt>
      <trkpt lat="46.94266" lon="-1.06486">
        <ele>147</ele>
        <time>2022-09-05T09:13:50Z</time>
      </trkpt>
      <trkpt lat="46.94271" lon="-1.06491">
        <ele>146</ele>
        <time>2022-09-05T09:13:51Z</time>
      </trkpt>
      <trkpt lat="46.94281" lon="-1.06495">
        <ele>146</ele>
        <time>2022-09-05T09:13:53Z</time>
      </trkpt>
      <trkpt lat="46.94301" lon="-1.06493">
        <ele>145</ele>
        <time>2022-09-05T09:13:57Z</time>
      </trkpt>
      <trkpt lat="46.94314" lon="-1.06494">
        <ele>145</ele>
        <time>2022-09-05T09:13:59Z</time>
      </trkpt>
      <trkpt lat="46.94327" lon="-1.06499">
        <ele>144</ele>
        <time>2022-09-05T09:14:01Z</time>
      </trkpt>
      <trkpt lat="46.94336" lon="-1.06509">
        <ele>144</ele>
        <time>2022-09-05T09:14:03Z</time>
      </trkpt>
      <trkpt lat="46.94472" lon="-1.06748">
        <ele>132</ele>
        <time>2022-09-05T09:14:41Z</time>
      </trkpt>
      <trkpt lat="46.94477" lon="-1.06761">
        <ele>132</ele>
        <time>2022-09-05T09:14:43Z</time>
      </trkpt>
      <trkpt lat="46.94484" lon="-1.06757">
        <ele>132</ele>
        <time>2022-09-05T09:14:44Z</time>
      </trkpt>
      <trkpt lat="46.94491" lon="-1.06762">
        <ele>131</ele>
        <time>2022-09-05T09:14:46Z</time>
      </trkpt>
      <trkpt lat="46.94493" lon="-1.06774">
        <ele>131</ele>
        <time>2022-09-05T09:14:47Z</time>
      </trkpt>
      <trkpt lat="46.94488" lon="-1.06783">
        <ele>132</ele>
        <time>2022-09-05T09:14:49Z</time>
      </trkpt>
      <trkpt lat="46.94541" lon="-1.06899">
        <ele>130</ele>
        <time>2022-09-05T09:15:06Z</time>
      </trkpt>
      <trkpt lat="46.94606" lon="-1.07028">
        <ele>130</ele>
        <time>2022-09-05T09:15:25Z</time>
      </trkpt>
      <trkpt lat="46.94673" lon="-1.07145">
        <ele>130</ele>
        <time>2022-09-05T09:15:44Z</time>
      </trkpt>
      <trkpt lat="46.94706" lon="-1.07198">
        <ele>130</ele>
        <time>2022-09-05T09:15:52Z</time>
      </trkpt>
      <trkpt lat="46.94719" lon="-1.07218">
        <ele>129</ele>
        <time>2022-09-05T09:15:56Z</time>
      </trkpt>
      <trkpt lat="46.94754" lon="-1.07261">
        <ele>127</ele>
        <time>2022-09-05T09:16:04Z</time>
      </trkpt>
      <trkpt lat="46.94788" lon="-1.07303">
        <ele>124</ele>
        <time>2022-09-05T09:16:12Z</time>
      </trkpt>
      <trkpt lat="46.94811" lon="-1.07325">
        <ele>122</ele>
        <time>2022-09-05T09:16:17Z</time>
      </trkpt>
      <trkpt lat="46.94848" lon="-1.07354">
        <ele>120</ele>
        <time>2022-09-05T09:16:24Z</time>
      </trkpt>
      <trkpt lat="46.94871" lon="-1.07368">
        <ele>118</ele>
        <time>2022-09-05T09:16:28Z</time>
      </trkpt>
      <trkpt lat="46.94931" lon="-1.07395">
        <ele>115</ele>
        <time>2022-09-05T09:16:40Z</time>
      </trkpt>
      <trkpt lat="46.94948" lon="-1.07407">
        <ele>115</ele>
        <time>2022-09-05T09:16:43Z</time>
      </trkpt>
      <trkpt lat="46.94957" lon="-1.07416">
        <ele>115</ele>
        <time>2022-09-05T09:16:45Z</time>
      </trkpt>
      <trkpt lat="46.94972" lon="-1.07438">
        <ele>116</ele>
        <time>2022-09-05T09:16:49Z</time>
      </trkpt>
      <trkpt lat="46.94985" lon="-1.07471">
        <ele>118</ele>
        <time>2022-09-05T09:16:53Z</time>
      </trkpt>
      <trkpt lat="46.95049" lon="-1.07656">
        <ele>123</ele>
        <time>2022-09-05T09:17:19Z</time>
      </trkpt>
      <trkpt lat="46.95148" lon="-1.07928">
        <ele>120</ele>
        <time>2022-09-05T09:17:56Z</time>
      </trkpt>
      <trkpt lat="46.95157" lon="-1.07927">
        <ele>120</ele>
        <time>2022-09-05T09:17:58Z</time>
      </trkpt>
      <trkpt lat="46.95161" lon="-1.07929">
        <ele>120</ele>
        <time>2022-09-05T09:17:58Z</time>
      </trkpt>
      <trkpt lat="46.95167" lon="-1.0794">
        <ele>120</ele>
        <time>2022-09-05T09:18:00Z</time>
      </trkpt>
      <trkpt lat="46.95168" lon="-1.07952">
        <ele>120</ele>
        <time>2022-09-05T09:18:01Z</time>
      </trkpt>
      <trkpt lat="46.95164" lon="-1.07964">
        <ele>120</ele>
        <time>2022-09-05T09:18:03Z</time>
      </trkpt>
      <trkpt lat="46.95161" lon="-1.07967">
        <ele>120</ele>
        <time>2022-09-05T09:18:04Z</time>
      </trkpt>
      <trkpt lat="46.95423" lon="-1.08704">
        <ele>124</ele>
        <time>2022-09-05T09:19:45Z</time>
      </trkpt>
      <trkpt lat="46.95476" lon="-1.08855">
        <ele>122</ele>
        <time>2022-09-05T09:20:05Z</time>
      </trkpt>
      <trkpt lat="46.9551" lon="-1.0896">
        <ele>120</ele>
        <time>2022-09-05T09:20:19Z</time>
      </trkpt>
      <trkpt lat="46.9559" lon="-1.093">
        <ele>111</ele>
        <time>2022-09-05T09:21:03Z</time>
      </trkpt>
      <trkpt lat="46.95792" lon="-1.10194">
        <ele>102</ele>
        <time>2022-09-05T09:22:57Z</time>
      </trkpt>
      <trkpt lat="46.95924" lon="-1.10766">
        <ele>106</ele>
        <time>2022-09-05T09:24:11Z</time>
      </trkpt>
      <trkpt lat="46.95964" lon="-1.10949">
        <ele>110</ele>
        <time>2022-09-05T09:24:34Z</time>
      </trkpt>
      <trkpt lat="46.9601" lon="-1.11154">
        <ele>112</ele>
        <time>2022-09-05T09:25:00Z</time>
      </trkpt>
      <trkpt lat="46.96012" lon="-1.11154">
        <ele>112</ele>
        <time>2022-09-05T09:25:01Z</time>
      </trkpt>
      <trkpt lat="46.96016" lon="-1.11159">
        <ele>111</ele>
        <time>2022-09-05T09:25:02Z</time>
      </trkpt>
      <trkpt lat="46.96016" lon="-1.11164">
        <ele>111</ele>
        <time>2022-09-05T09:25:02Z</time>
      </trkpt>
      <trkpt lat="46.96013" lon="-1.11168">
        <ele>112</ele>
        <time>2022-09-05T09:25:03Z</time>
      </trkpt>
      <trkpt lat="46.96031" lon="-1.11237">
        <ele>111</ele>
        <time>2022-09-05T09:25:12Z</time>
      </trkpt>
      <trkpt lat="46.96062" lon="-1.11346">
        <ele>111</ele>
        <time>2022-09-05T09:25:26Z</time>
      </trkpt>
      <trkpt lat="46.96076" lon="-1.11387">
        <ele>111</ele>
        <time>2022-09-05T09:25:32Z</time>
      </trkpt>
      <trkpt lat="46.96093" lon="-1.11426">
        <ele>111</ele>
        <time>2022-09-05T09:25:37Z</time>
      </trkpt>
      <trkpt lat="46.96124" lon="-1.11491">
        <ele>110</ele>
        <time>2022-09-05T09:25:47Z</time>
      </trkpt>
      <trkpt lat="46.96143" lon="-1.11523">
        <ele>109</ele>
        <time>2022-09-05T09:25:52Z</time>
      </trkpt>
      <trkpt lat="46.96146" lon="-1.1152">
        <ele>109</ele>
        <time>2022-09-05T09:25:53Z</time>
      </trkpt>
      <trkpt lat="46.96151" lon="-1.11523">
        <ele>109</ele>
        <time>2022-09-05T09:25:54Z</time>
      </trkpt>
      <trkpt lat="46.96232" lon="-1.11426">
        <ele>109</ele>
        <time>2022-09-05T09:26:12Z</time>
      </trkpt>
      <trkpt lat="46.9625" lon="-1.11407">
        <ele>109</ele>
        <time>2022-09-05T09:26:16Z</time>
      </trkpt>
      <trkpt lat="46.96259" lon="-1.11403">
        <ele>109</ele>
        <time>2022-09-05T09:26:18Z</time>
      </trkpt>
      <trkpt lat="46.96273" lon="-1.11405">
        <ele>109</ele>
        <time>2022-09-05T09:26:21Z</time>
      </trkpt>
      <trkpt lat="46.96345" lon="-1.11421">
        <ele>108</ele>
        <time>2022-09-05T09:26:34Z</time>
      </trkpt>
      <trkpt lat="46.96347" lon="-1.11416">
        <ele>108</ele>
        <time>2022-09-05T09:26:34Z</time>
      </trkpt>
      <trkpt lat="46.96353" lon="-1.11414">
        <ele>108</ele>
        <time>2022-09-05T09:26:35Z</time>
      </trkpt>
      <trkpt lat="46.96358" lon="-1.1142">
        <ele>108</ele>
        <time>2022-09-05T09:26:36Z</time>
      </trkpt>
      <trkpt lat="46.96358" lon="-1.11425">
        <ele>108</ele>
        <time>2022-09-05T09:26:37Z</time>
      </trkpt>
      <trkpt lat="46.96468" lon="-1.11439">
        <ele>106</ele>
        <time>2022-09-05T09:26:57Z</time>
      </trkpt>
      <trkpt lat="46.96503" lon="-1.11447">
        <ele>105</ele>
        <time>2022-09-05T09:27:03Z</time>
      </trkpt>
      <trkpt lat="46.96532" lon="-1.11465">
        <ele>103</ele>
        <time>2022-09-05T09:27:09Z</time>
      </trkpt>
      <trkpt lat="46.96549" lon="-1.11487">
        <ele>103</ele>
        <time>2022-09-05T09:27:13Z</time>
      </trkpt>
      <trkpt lat="46.96568" lon="-1.1152">
        <ele>103</ele>
        <time>2022-09-05T09:27:18Z</time>
      </trkpt>
      <trkpt lat="46.96661" lon="-1.11711">
        <ele>106</ele>
        <time>2022-09-05T09:27:46Z</time>
      </trkpt>
      <trkpt lat="46.96665" lon="-1.11709">
        <ele>106</ele>
        <time>2022-09-05T09:27:47Z</time>
      </trkpt>
      <trkpt lat="46.96669" lon="-1.11712">
        <ele>106</ele>
        <time>2022-09-05T09:27:48Z</time>
      </trkpt>
      <trkpt lat="46.96759" lon="-1.11625">
        <ele>106</ele>
        <time>2022-09-05T09:28:07Z</time>
      </trkpt>
      <trkpt lat="46.96902" lon="-1.11529">
        <ele>99</ele>
        <time>2022-09-05T09:28:35Z</time>
      </trkpt>
      <trkpt lat="46.97224" lon="-1.11314">
        <ele>86</ele>
        <time>2022-09-05T09:29:38Z</time>
      </trkpt>
      <trkpt lat="46.9738" lon="-1.11232">
        <ele>83</ele>
        <time>2022-09-05T09:30:08Z</time>
      </trkpt>
      <trkpt lat="46.97387" lon="-1.11229">
        <ele>83</ele>
        <time>2022-09-05T09:30:09Z</time>
      </trkpt>
      <trkpt lat="46.97416" lon="-1.11219">
        <ele>82</ele>
        <time>2022-09-05T09:30:14Z</time>
      </trkpt>
      <trkpt lat="46.97456" lon="-1.11216">
        <ele>84</ele>
        <time>2022-09-05T09:30:21Z</time>
      </trkpt>
      <trkpt lat="46.97672" lon="-1.11238">
        <ele>86</ele>
        <time>2022-09-05T09:31:00Z</time>
      </trkpt>
      <trkpt lat="46.97874" lon="-1.11262">
        <ele>84</ele>
        <time>2022-09-05T09:31:36Z</time>
      </trkpt>
      <trkpt lat="46.97903" lon="-1.11263">
        <ele>84</ele>
        <time>2022-09-05T09:31:41Z</time>
      </trkpt>
      <trkpt lat="46.97935" lon="-1.11258">
        <ele>85</ele>
        <time>2022-09-05T09:31:47Z</time>
      </trkpt>
      <trkpt lat="46.98244" lon="-1.11158">
        <ele>89</ele>
        <time>2022-09-05T09:32:43Z</time>
      </trkpt>
      <trkpt lat="46.9877" lon="-1.11009">
        <ele>90</ele>
        <time>2022-09-05T09:34:18Z</time>
      </trkpt>
      <trkpt lat="46.98824" lon="-1.10994">
        <ele>86</ele>
        <time>2022-09-05T09:34:28Z</time>
      </trkpt>
      <trkpt lat="46.98996" lon="-1.10969">
        <ele>80</ele>
        <time>2022-09-05T09:34:59Z</time>
      </trkpt>
      <trkpt lat="46.99025" lon="-1.10962">
        <ele>79</ele>
        <time>2022-09-05T09:35:04Z</time>
      </trkpt>
      <trkpt lat="46.99052" lon="-1.10947">
        <ele>77</ele>
        <time>2022-09-05T09:35:09Z</time>
      </trkpt>
      <trkpt lat="46.9918" lon="-1.10845">
        <ele>74</ele>
        <time>2022-09-05T09:35:35Z</time>
      </trkpt>
      <trkpt lat="46.99222" lon="-1.10828">
        <ele>74</ele>
        <time>2022-09-05T09:35:43Z</time>
      </trkpt>
      <trkpt lat="46.9927" lon="-1.10822">
        <ele>74</ele>
        <time>2022-09-05T09:35:52Z</time>
      </trkpt>
      <trkpt lat="46.99287" lon="-1.10819">
        <ele>74</ele>
        <time>2022-09-05T09:35:55Z</time>
      </trkpt>
      <trkpt lat="46.99298" lon="-1.10823">
        <ele>74</ele>
        <time>2022-09-05T09:35:57Z</time>
      </trkpt>
      <trkpt lat="46.99317" lon="-1.10838">
        <ele>74</ele>
        <time>2022-09-05T09:36:00Z</time>
      </trkpt>
      <trkpt lat="46.99334" lon="-1.10855">
        <ele>74</ele>
        <time>2022-09-05T09:36:04Z</time>
      </trkpt>
      <trkpt lat="46.99342" lon="-1.10867">
        <ele>74</ele>
        <time>2022-09-05T09:36:06Z</time>
      </trkpt>
      <trkpt lat="46.99351" lon="-1.10891">
        <ele>74</ele>
        <time>2022-09-05T09:36:09Z</time>
      </trkpt>
      <trkpt lat="46.99359" lon="-1.10948">
        <ele>74</ele>
        <time>2022-09-05T09:36:17Z</time>
      </trkpt>
      <trkpt lat="46.99367" lon="-1.10972">
        <ele>75</ele>
        <time>2022-09-05T09:36:20Z</time>
      </trkpt>
      <trkpt lat="46.99377" lon="-1.10996">
        <ele>75</ele>
        <time>2022-09-05T09:36:23Z</time>
      </trkpt>
      <trkpt lat="46.99388" lon="-1.11016">
        <ele>75</ele>
        <time>2022-09-05T09:36:26Z</time>
      </trkpt>
      <trkpt lat="46.99408" lon="-1.11046">
        <ele>75</ele>
        <time>2022-09-05T09:36:31Z</time>
      </trkpt>
      <trkpt lat="46.99435" lon="-1.1107">
        <ele>75</ele>
        <time>2022-09-05T09:36:37Z</time>
      </trkpt>
      <trkpt lat="46.99448" lon="-1.11074">
        <ele>76</ele>
        <time>2022-09-05T09:36:39Z</time>
      </trkpt>
      <trkpt lat="46.99474" lon="-1.11072">
        <ele>78</ele>
        <time>2022-09-05T09:36:44Z</time>
      </trkpt>
      <trkpt lat="46.99499" lon="-1.1106">
        <ele>81</ele>
        <time>2022-09-05T09:36:49Z</time>
      </trkpt>
      <trkpt lat="46.99521" lon="-1.11046">
        <ele>83</ele>
        <time>2022-09-05T09:36:53Z</time>
      </trkpt>
      <trkpt lat="46.99535" lon="-1.11032">
        <ele>83</ele>
        <time>2022-09-05T09:36:56Z</time>
      </trkpt>
      <trkpt lat="46.99551" lon="-1.11011">
        <ele>85</ele>
        <time>2022-09-05T09:37:00Z</time>
      </trkpt>
      <trkpt lat="46.99595" lon="-1.10909">
        <ele>86</ele>
        <time>2022-09-05T09:37:14Z</time>
      </trkpt>
      <trkpt lat="46.99611" lon="-1.10883">
        <ele>86</ele>
        <time>2022-09-05T09:37:19Z</time>
      </trkpt>
      <trkpt lat="46.99626" lon="-1.10869">
        <ele>86</ele>
        <time>2022-09-05T09:37:22Z</time>
      </trkpt>
      <trkpt lat="46.99645" lon="-1.10858">
        <ele>86</ele>
        <time>2022-09-05T09:37:25Z</time>
      </trkpt>
      <trkpt lat="47.00075" lon="-1.10779">
        <ele>86</ele>
        <time>2022-09-05T09:38:43Z</time>
      </trkpt>
      <trkpt lat="47.00103" lon="-1.10779">
        <ele>87</ele>
        <time>2022-09-05T09:38:48Z</time>
      </trkpt>
      <trkpt lat="47.00283" lon="-1.10824">
        <ele>90</ele>
        <time>2022-09-05T09:39:20Z</time>
      </trkpt>
      <trkpt lat="47.00755" lon="-1.10935">
        <ele>99</ele>
        <time>2022-09-05T09:40:45Z</time>
      </trkpt>
      <trkpt lat="47.01071" lon="-1.11006">
        <ele>101</ele>
        <time>2022-09-05T09:41:42Z</time>
      </trkpt>
      <trkpt lat="47.01086" lon="-1.11012">
        <ele>101</ele>
        <time>2022-09-05T09:41:45Z</time>
      </trkpt>
      <trkpt lat="47.01221" lon="-1.11124">
        <ele>94</ele>
        <time>2022-09-05T09:42:12Z</time>
      </trkpt>
      <trkpt lat="47.01254" lon="-1.11146">
        <ele>92</ele>
        <time>2022-09-05T09:42:19Z</time>
      </trkpt>
      <trkpt lat="47.01274" lon="-1.11163">
        <ele>92</ele>
        <time>2022-09-05T09:42:23Z</time>
      </trkpt>
      <trkpt lat="47.01286" lon="-1.1117">
        <ele>91</ele>
        <time>2022-09-05T09:42:25Z</time>
      </trkpt>
      <trkpt lat="47.01321" lon="-1.11181">
        <ele>90</ele>
        <time>2022-09-05T09:42:32Z</time>
      </trkpt>
      <trkpt lat="47.01343" lon="-1.11211">
        <ele>88</ele>
        <time>2022-09-05T09:42:37Z</time>
      </trkpt>
      <trkpt lat="47.01361" lon="-1.11244">
        <ele>87</ele>
        <time>2022-09-05T09:42:42Z</time>
      </trkpt>
      <trkpt lat="47.01371" lon="-1.11266">
        <ele>86</ele>
        <time>2022-09-05T09:42:45Z</time>
      </trkpt>
      <trkpt lat="47.01377" lon="-1.11298">
        <ele>85</ele>
        <time>2022-09-05T09:42:49Z</time>
      </trkpt>
      <trkpt lat="47.01378" lon="-1.11309">
        <ele>85</ele>
        <time>2022-09-05T09:42:51Z</time>
      </trkpt>
      <trkpt lat="47.01375" lon="-1.11325">
        <ele>85</ele>
        <time>2022-09-05T09:42:53Z</time>
      </trkpt>
      <trkpt lat="47.0137" lon="-1.11339">
        <ele>85</ele>
        <time>2022-09-05T09:42:55Z</time>
      </trkpt>
      <trkpt lat="47.0137" lon="-1.11353">
        <ele>84</ele>
        <time>2022-09-05T09:42:56Z</time>
      </trkpt>
      <trkpt lat="47.01375" lon="-1.11401">
        <ele>82</ele>
        <time>2022-09-05T09:43:02Z</time>
      </trkpt>
      <trkpt lat="47.01369" lon="-1.11438">
        <ele>81</ele>
        <time>2022-09-05T09:43:07Z</time>
      </trkpt>
      <trkpt lat="47.01358" lon="-1.11478">
        <ele>80</ele>
        <time>2022-09-05T09:43:12Z</time>
      </trkpt>
      <trkpt lat="47.01374" lon="-1.1146">
        <ele>80</ele>
        <time>2022-09-05T09:43:16Z</time>
      </trkpt>
      <trkpt lat="47.01382" lon="-1.11456">
        <ele>80</ele>
        <time>2022-09-05T09:43:17Z</time>
      </trkpt>
      <trkpt lat="47.01383" lon="-1.11464">
        <ele>80</ele>
        <time>2022-09-05T09:43:18Z</time>
      </trkpt>
      <trkpt lat="47.01391" lon="-1.11484">
        <ele>78</ele>
        <time>2022-09-05T09:43:21Z</time>
      </trkpt>
      <trkpt lat="47.01404" lon="-1.11507">
        <ele>77</ele>
        <time>2022-09-05T09:43:25Z</time>
      </trkpt>
      <trkpt lat="47.01418" lon="-1.11524">
        <ele>75</ele>
        <time>2022-09-05T09:43:28Z</time>
      </trkpt>
      <trkpt lat="47.01425" lon="-1.11528">
        <ele>74</ele>
        <time>2022-09-05T09:43:29Z</time>
      </trkpt>
      <trkpt lat="47.01438" lon="-1.11529">
        <ele>73</ele>
        <time>2022-09-05T09:43:31Z</time>
      </trkpt>
      <trkpt lat="47.01461" lon="-1.11522">
        <ele>71</ele>
        <time>2022-09-05T09:43:36Z</time>
      </trkpt>
      <trkpt lat="47.01496" lon="-1.11507">
        <ele>69</ele>
        <time>2022-09-05T09:43:42Z</time>
      </trkpt>
      <trkpt lat="47.01505" lon="-1.11506">
        <ele>68</ele>
        <time>2022-09-05T09:43:44Z</time>
      </trkpt>
      <trkpt lat="47.01508" lon="-1.11509">
        <ele>68</ele>
        <time>2022-09-05T09:43:44Z</time>
      </trkpt>
      <trkpt lat="47.0153" lon="-1.11447">
        <ele>70</ele>
        <time>2022-09-05T09:43:53Z</time>
      </trkpt>
      <trkpt lat="47.01546" lon="-1.1139">
        <ele>68</ele>
        <time>2022-09-05T09:44:00Z</time>
      </trkpt>
      <trkpt lat="47.01579" lon="-1.11301">
        <ele>56</ele>
        <time>2022-09-05T09:44:13Z</time>
      </trkpt>
      <trkpt lat="47.01594" lon="-1.11226">
        <ele>50</ele>
        <time>2022-09-05T09:44:22Z</time>
      </trkpt>
      <trkpt lat="47.016" lon="-1.11176">
        <ele>50</ele>
        <time>2022-09-05T09:44:28Z</time>
      </trkpt>
      <trkpt lat="47.01607" lon="-1.11112">
        <ele>51</ele>
        <time>2022-09-05T09:44:36Z</time>
      </trkpt>
      <trkpt lat="47.01614" lon="-1.11053">
        <ele>52</ele>
        <time>2022-09-05T09:44:43Z</time>
      </trkpt>
      <trkpt lat="47.01622" lon="-1.11016">
        <ele>53</ele>
        <time>2022-09-05T09:44:48Z</time>
      </trkpt>
      <trkpt lat="47.01634" lon="-1.10987">
        <ele>55</ele>
        <time>2022-09-05T09:44:52Z</time>
      </trkpt>
      <trkpt lat="47.01653" lon="-1.10954">
        <ele>57</ele>
        <time>2022-09-05T09:44:57Z</time>
      </trkpt>
      <trkpt lat="47.01662" lon="-1.10943">
        <ele>58</ele>
        <time>2022-09-05T09:44:59Z</time>
      </trkpt>
      <trkpt lat="47.01715" lon="-1.10904">
        <ele>64</ele>
        <time>2022-09-05T09:45:10Z</time>
      </trkpt>
      <trkpt lat="47.01733" lon="-1.10894">
        <ele>65</ele>
        <time>2022-09-05T09:45:13Z</time>
      </trkpt>
      <trkpt lat="47.01748" lon="-1.10893">
        <ele>67</ele>
        <time>2022-09-05T09:45:16Z</time>
      </trkpt>
      <trkpt lat="47.01782" lon="-1.10896">
        <ele>70</ele>
        <time>2022-09-05T09:45:22Z</time>
      </trkpt>
      <trkpt lat="47.01799" lon="-1.10892">
        <ele>72</ele>
        <time>2022-09-05T09:45:25Z</time>
      </trkpt>
      <trkpt lat="47.01831" lon="-1.10874">
        <ele>75</ele>
        <time>2022-09-05T09:45:31Z</time>
      </trkpt>
      <trkpt lat="47.01851" lon="-1.10859">
        <ele>75</ele>
        <time>2022-09-05T09:45:35Z</time>
      </trkpt>
      <trkpt lat="47.0188" lon="-1.10834">
        <ele>76</ele>
        <time>2022-09-05T09:45:41Z</time>
      </trkpt>
      <trkpt lat="47.01964" lon="-1.10755">
        <ele>81</ele>
        <time>2022-09-05T09:45:59Z</time>
      </trkpt>
      <trkpt lat="47.01978" lon="-1.10739">
        <ele>82</ele>
        <time>2022-09-05T09:46:02Z</time>
      </trkpt>
      <trkpt lat="47.02015" lon="-1.10681">
        <ele>83</ele>
        <time>2022-09-05T09:46:12Z</time>
      </trkpt>
      <trkpt lat="47.02039" lon="-1.10657">
        <ele>85</ele>
        <time>2022-09-05T09:46:17Z</time>
      </trkpt>
      <trkpt lat="47.02211" lon="-1.10513">
        <ele>90</ele>
        <time>2022-09-05T09:46:52Z</time>
      </trkpt>
      <trkpt lat="47.02272" lon="-1.10463">
        <ele>91</ele>
        <time>2022-09-05T09:47:05Z</time>
      </trkpt>
      <trkpt lat="47.02326" lon="-1.10412">
        <ele>93</ele>
        <time>2022-09-05T09:47:16Z</time>
      </trkpt>
      <trkpt lat="47.02616" lon="-1.10066">
        <ele>100</ele>
        <time>2022-09-05T09:48:23Z</time>
      </trkpt>
      <trkpt lat="47.02667" lon="-1.10001">
        <ele>102</ele>
        <time>2022-09-05T09:48:35Z</time>
      </trkpt>
      <trkpt lat="47.03013" lon="-1.09505">
        <ele>109</ele>
        <time>2022-09-05T09:50:01Z</time>
      </trkpt>
      <trkpt lat="47.03059" lon="-1.09437">
        <ele>110</ele>
        <time>2022-09-05T09:50:12Z</time>
      </trkpt>
      <trkpt lat="47.03165" lon="-1.09265">
        <ele>115</ele>
        <time>2022-09-05T09:50:41Z</time>
      </trkpt>
      <trkpt lat="47.03178" lon="-1.09228">
        <ele>115</ele>
        <time>2022-09-05T09:50:46Z</time>
      </trkpt>
      <trkpt lat="47.03177" lon="-1.09216">
        <ele>116</ele>
        <time>2022-09-05T09:50:47Z</time>
      </trkpt>
      <trkpt lat="47.0318" lon="-1.09206">
        <ele>116</ele>
        <time>2022-09-05T09:50:48Z</time>
      </trkpt>
      <trkpt lat="47.03186" lon="-1.092">
        <ele>116</ele>
        <time>2022-09-05T09:50:50Z</time>
      </trkpt>
      <trkpt lat="47.03195" lon="-1.09199">
        <ele>116</ele>
        <time>2022-09-05T09:50:51Z</time>
      </trkpt>
      <trkpt lat="47.03223" lon="-1.09169">
        <ele>116</ele>
        <time>2022-09-05T09:50:57Z</time>
      </trkpt>
      <trkpt lat="47.04977" lon="-1.06296">
        <ele>115</ele>
        <time>2022-09-05T09:58:45Z</time>
      </trkpt>
      <trkpt lat="47.05003" lon="-1.0625">
        <ele>116</ele>
        <time>2022-09-05T09:58:52Z</time>
      </trkpt>
      <trkpt lat="47.05043" lon="-1.06173">
        <ele>118</ele>
        <time>2022-09-05T09:59:04Z</time>
      </trkpt>
      <trkpt lat="47.05074" lon="-1.06105">
        <ele>117</ele>
        <time>2022-09-05T09:59:14Z</time>
      </trkpt>
      <trkpt lat="47.05107" lon="-1.06018">
        <ele>116</ele>
        <time>2022-09-05T09:59:26Z</time>
      </trkpt>
      <trkpt lat="47.05122" lon="-1.05974">
        <ele>116</ele>
        <time>2022-09-05T09:59:32Z</time>
      </trkpt>
      <trkpt lat="47.05137" lon="-1.05925">
        <ele>116</ele>
        <time>2022-09-05T09:59:39Z</time>
      </trkpt>
      <trkpt lat="47.05159" lon="-1.05842">
        <ele>116</ele>
        <time>2022-09-05T09:59:49Z</time>
      </trkpt>
      <trkpt lat="47.05288" lon="-1.05352">
        <ele>116</ele>
        <time>2022-09-05T10:00:53Z</time>
      </trkpt>
      <trkpt lat="47.05399" lon="-1.04934">
        <ele>115</ele>
        <time>2022-09-05T10:01:47Z</time>
      </trkpt>
      <trkpt lat="47.05503" lon="-1.04534">
        <ele>117</ele>
        <time>2022-09-05T10:02:39Z</time>
      </trkpt>
      <trkpt lat="47.05902" lon="-1.03014">
        <ele>111</ele>
        <time>2022-09-05T10:05:57Z</time>
      </trkpt>
      <trkpt lat="47.05908" lon="-1.02971">
        <ele>110</ele>
        <time>2022-09-05T10:06:02Z</time>
      </trkpt>
      <trkpt lat="47.05909" lon="-1.0295">
        <ele>109</ele>
        <time>2022-09-05T10:06:05Z</time>
      </trkpt>
      <trkpt lat="47.05906" lon="-1.02939">
        <ele>109</ele>
        <time>2022-09-05T10:06:06Z</time>
      </trkpt>
      <trkpt lat="47.05908" lon="-1.02924">
        <ele>108</ele>
        <time>2022-09-05T10:06:08Z</time>
      </trkpt>
      <trkpt lat="47.05915" lon="-1.02913">
        <ele>108</ele>
        <time>2022-09-05T10:06:10Z</time>
      </trkpt>
      <trkpt lat="47.05921" lon="-1.0291">
        <ele>108</ele>
        <time>2022-09-05T10:06:11Z</time>
      </trkpt>
      <trkpt lat="47.05925" lon="-1.02904">
        <ele>108</ele>
        <time>2022-09-05T10:06:12Z</time>
      </trkpt>
      <trkpt lat="47.05932" lon="-1.02884">
        <ele>108</ele>
        <time>2022-09-05T10:06:15Z</time>
      </trkpt>
      <trkpt lat="47.05946" lon="-1.02841">
        <ele>108</ele>
        <time>2022-09-05T10:06:20Z</time>
      </trkpt>
      <trkpt lat="47.06071" lon="-1.02363">
        <ele>106</ele>
        <time>2022-09-05T10:07:22Z</time>
      </trkpt>
      <trkpt lat="47.0608" lon="-1.02318">
        <ele>105</ele>
        <time>2022-09-05T10:07:28Z</time>
      </trkpt>
      <trkpt lat="47.06079" lon="-1.02268">
        <ele>104</ele>
        <time>2022-09-05T10:07:34Z</time>
      </trkpt>
      <trkpt lat="47.06038" lon="-1.0199">
        <ele>96</ele>
        <time>2022-09-05T10:08:09Z</time>
      </trkpt>
      <trkpt lat="47.06025" lon="-1.01869">
        <ele>94</ele>
        <time>2022-09-05T10:08:24Z</time>
      </trkpt>
      <trkpt lat="47.06017" lon="-1.01869">
        <ele>94</ele>
        <time>2022-09-05T10:08:25Z</time>
      </trkpt>
      <trkpt lat="47.05999" lon="-1.01854">
        <ele>93</ele>
        <time>2022-09-05T10:08:29Z</time>
      </trkpt>
      <trkpt lat="47.05982" lon="-1.01835">
        <ele>94</ele>
        <time>2022-09-05T10:08:32Z</time>
      </trkpt>
      <trkpt lat="47.05938" lon="-1.01773">
        <ele>95</ele>
        <time>2022-09-05T10:08:43Z</time>
      </trkpt>
      <trkpt lat="47.05879" lon="-1.0168">
        <ele>99</ele>
        <time>2022-09-05T10:08:59Z</time>
      </trkpt>
      <trkpt lat="47.05852" lon="-1.01649">
        <ele>100</ele>
        <time>2022-09-05T10:09:05Z</time>
      </trkpt>
      <trkpt lat="47.05822" lon="-1.01624">
        <ele>101</ele>
        <time>2022-09-05T10:09:11Z</time>
      </trkpt>
      <trkpt lat="47.058" lon="-1.01602">
        <ele>100</ele>
        <time>2022-09-05T10:09:16Z</time>
      </trkpt>
      <trkpt lat="47.05769" lon="-1.0156">
        <ele>99</ele>
        <time>2022-09-05T10:09:23Z</time>
      </trkpt>
      <trkpt lat="47.0573" lon="-1.01511">
        <ele>98</ele>
        <time>2022-09-05T10:09:32Z</time>
      </trkpt>
      <trkpt lat="47.05717" lon="-1.01497">
        <ele>98</ele>
        <time>2022-09-05T10:09:35Z</time>
      </trkpt>
      <trkpt lat="47.05689" lon="-1.01474">
        <ele>98</ele>
        <time>2022-09-05T10:09:41Z</time>
      </trkpt>
      <trkpt lat="47.05669" lon="-1.01454">
        <ele>98</ele>
        <time>2022-09-05T10:09:45Z</time>
      </trkpt>
      <trkpt lat="47.05662" lon="-1.01458">
        <ele>98</ele>
        <time>2022-09-05T10:09:47Z</time>
      </trkpt>
      <trkpt lat="47.05659" lon="-1.01457">
        <ele>98</ele>
        <time>2022-09-05T10:09:47Z</time>
      </trkpt>
      <trkpt lat="47.05655" lon="-1.01451">
        <ele>99</ele>
        <time>2022-09-05T10:09:48Z</time>
      </trkpt>
      <trkpt lat="47.05656" lon="-1.01441">
        <ele>98</ele>
        <time>2022-09-05T10:09:49Z</time>
      </trkpt>
      <trkpt lat="47.0561" lon="-1.01388">
        <ele>100</ele>
        <time>2022-09-05T10:10:00Z</time>
      </trkpt>
      <trkpt lat="47.05599" lon="-1.01372">
        <ele>101</ele>
        <time>2022-09-05T10:10:03Z</time>
      </trkpt>
      <trkpt lat="47.0558" lon="-1.0134">
        <ele>102</ele>
        <time>2022-09-05T10:10:08Z</time>
      </trkpt>
      <trkpt lat="47.05554" lon="-1.01291">
        <ele>101</ele>
        <time>2022-09-05T10:10:15Z</time>
      </trkpt>
      <trkpt lat="47.05531" lon="-1.01235">
        <ele>100</ele>
        <time>2022-09-05T10:10:23Z</time>
      </trkpt>
      <trkpt lat="47.05523" lon="-1.01203">
        <ele>99</ele>
        <time>2022-09-05T10:10:27Z</time>
      </trkpt>
      <trkpt lat="47.05515" lon="-1.0114">
        <ele>97</ele>
        <time>2022-09-05T10:10:35Z</time>
      </trkpt>
      <trkpt lat="47.05507" lon="-1.01099">
        <ele>97</ele>
        <time>2022-09-05T10:10:40Z</time>
      </trkpt>
      <trkpt lat="47.05495" lon="-1.01072">
        <ele>98</ele>
        <time>2022-09-05T10:10:44Z</time>
      </trkpt>
      <trkpt lat="47.0538" lon="-1.009">
        <ele>103</ele>
        <time>2022-09-05T10:11:13Z</time>
      </trkpt>
      <trkpt lat="47.0537" lon="-1.00889">
        <ele>103</ele>
        <time>2022-09-05T10:11:16Z</time>
      </trkpt>
      <trkpt lat="47.05311" lon="-1.00843">
        <ele>104</ele>
        <time>2022-09-05T10:11:27Z</time>
      </trkpt>
      <trkpt lat="47.05298" lon="-1.0083">
        <ele>104</ele>
        <time>2022-09-05T10:11:30Z</time>
      </trkpt>
      <trkpt lat="47.05286" lon="-1.00812">
        <ele>104</ele>
        <time>2022-09-05T10:11:33Z</time>
      </trkpt>
      <trkpt lat="47.05271" lon="-1.00787">
        <ele>104</ele>
        <time>2022-09-05T10:11:37Z</time>
      </trkpt>
      <trkpt lat="47.05141" lon="-1.00505">
        <ele>106</ele>
        <time>2022-09-05T10:12:19Z</time>
      </trkpt>
      <trkpt lat="47.05121" lon="-1.00456">
        <ele>106</ele>
        <time>2022-09-05T10:12:26Z</time>
      </trkpt>
      <trkpt lat="47.05107" lon="-1.00406">
        <ele>106</ele>
        <time>2022-09-05T10:12:32Z</time>
      </trkpt>
      <trkpt lat="47.05064" lon="-1.00212">
        <ele>104</ele>
        <time>2022-09-05T10:12:57Z</time>
      </trkpt>
      <trkpt lat="47.0494" lon="-0.99725">
        <ele>95</ele>
        <time>2022-09-05T10:14:00Z</time>
      </trkpt>
      <trkpt lat="47.0493" lon="-0.997">
        <ele>95</ele>
        <time>2022-09-05T10:14:03Z</time>
      </trkpt>
      <trkpt lat="47.0492" lon="-0.9968">
        <ele>95</ele>
        <time>2022-09-05T10:14:06Z</time>
      </trkpt>
      <trkpt lat="47.0484" lon="-0.99581">
        <ele>96</ele>
        <time>2022-09-05T10:14:25Z</time>
      </trkpt>
      <trkpt lat="47.0482" lon="-0.99553">
        <ele>95</ele>
        <time>2022-09-05T10:14:30Z</time>
      </trkpt>
      <trkpt lat="47.04798" lon="-0.99518">
        <ele>94</ele>
        <time>2022-09-05T10:14:36Z</time>
      </trkpt>
      <trkpt lat="47.04641" lon="-0.99216">
        <ele>94</ele>
        <time>2022-09-05T10:15:22Z</time>
      </trkpt>
      <trkpt lat="47.04628" lon="-0.99184">
        <ele>94</ele>
        <time>2022-09-05T10:15:26Z</time>
      </trkpt>
      <trkpt lat="47.04613" lon="-0.99137">
        <ele>94</ele>
        <time>2022-09-05T10:15:33Z</time>
      </trkpt>
      <trkpt lat="47.04601" lon="-0.99089">
        <ele>93</ele>
        <time>2022-09-05T10:15:39Z</time>
      </trkpt>
      <trkpt lat="47.04582" lon="-0.98933">
        <ele>91</ele>
        <time>2022-09-05T10:15:58Z</time>
      </trkpt>
      <trkpt lat="47.04555" lon="-0.9882">
        <ele>90</ele>
        <time>2022-09-05T10:16:12Z</time>
      </trkpt>
      <trkpt lat="47.04528" lon="-0.98652">
        <ele>88</ele>
        <time>2022-09-05T10:16:33Z</time>
      </trkpt>
      <trkpt lat="47.04525" lon="-0.9861">
        <ele>88</ele>
        <time>2022-09-05T10:16:38Z</time>
      </trkpt>
      <trkpt lat="47.04532" lon="-0.98534">
        <ele>88</ele>
        <time>2022-09-05T10:16:48Z</time>
      </trkpt>
      <trkpt lat="47.04531" lon="-0.98517">
        <ele>88</ele>
        <time>2022-09-05T10:16:50Z</time>
      </trkpt>
      <trkpt lat="47.04528" lon="-0.98498">
        <ele>88</ele>
        <time>2022-09-05T10:16:52Z</time>
      </trkpt>
      <trkpt lat="47.04521" lon="-0.98476">
        <ele>88</ele>
        <time>2022-09-05T10:16:55Z</time>
      </trkpt>
      <trkpt lat="47.0446" lon="-0.98338">
        <ele>85</ele>
        <time>2022-09-05T10:17:15Z</time>
      </trkpt>
      <trkpt lat="47.04427" lon="-0.98255">
        <ele>85</ele>
        <time>2022-09-05T10:17:27Z</time>
      </trkpt>
      <trkpt lat="47.04367" lon="-0.98082">
        <ele>84</ele>
        <time>2022-09-05T10:17:50Z</time>
      </trkpt>
      <trkpt lat="47.04351" lon="-0.98042">
        <ele>84</ele>
        <time>2022-09-05T10:17:56Z</time>
      </trkpt>
      <trkpt lat="47.04284" lon="-0.97903">
        <ele>82</ele>
        <time>2022-09-05T10:18:17Z</time>
      </trkpt>
      <trkpt lat="47.0427" lon="-0.97862">
        <ele>82</ele>
        <time>2022-09-05T10:18:22Z</time>
      </trkpt>
      <trkpt lat="47.04245" lon="-0.97766">
        <ele>81</ele>
        <time>2022-09-05T10:18:35Z</time>
      </trkpt>
      <trkpt lat="47.04236" lon="-0.9771">
        <ele>80</ele>
        <time>2022-09-05T10:18:42Z</time>
      </trkpt>
      <trkpt lat="47.04235" lon="-0.97686">
        <ele>79</ele>
        <time>2022-09-05T10:18:44Z</time>
      </trkpt>
      <trkpt lat="47.04243" lon="-0.97599">
        <ele>78</ele>
        <time>2022-09-05T10:18:55Z</time>
      </trkpt>
      <trkpt lat="47.04241" lon="-0.97575">
        <ele>78</ele>
        <time>2022-09-05T10:18:58Z</time>
      </trkpt>
      <trkpt lat="47.04238" lon="-0.97564">
        <ele>78</ele>
        <time>2022-09-05T10:18:59Z</time>
      </trkpt>
      <trkpt lat="47.04219" lon="-0.97533">
        <ele>77</ele>
        <time>2022-09-05T10:19:05Z</time>
      </trkpt>
      <trkpt lat="47.04137" lon="-0.97421">
        <ele>81</ele>
        <time>2022-09-05T10:19:24Z</time>
      </trkpt>
      <trkpt lat="47.04096" lon="-0.97348">
        <ele>81</ele>
        <time>2022-09-05T10:19:36Z</time>
      </trkpt>
      <trkpt lat="47.04043" lon="-0.97231">
        <ele>79</ele>
        <time>2022-09-05T10:19:53Z</time>
      </trkpt>
      <trkpt lat="47.04013" lon="-0.97169">
        <ele>79</ele>
        <time>2022-09-05T10:20:02Z</time>
      </trkpt>
      <trkpt lat="47.03963" lon="-0.97082">
        <ele>79</ele>
        <time>2022-09-05T10:20:16Z</time>
      </trkpt>
      <trkpt lat="47.03929" lon="-0.97005">
        <ele>82</ele>
        <time>2022-09-05T10:20:27Z</time>
      </trkpt>
      <trkpt lat="47.03883" lon="-0.96931">
        <ele>85</ele>
        <time>2022-09-05T10:20:39Z</time>
      </trkpt>
      <trkpt lat="47.03874" lon="-0.96911">
        <ele>85</ele>
        <time>2022-09-05T10:20:42Z</time>
      </trkpt>
      <trkpt lat="47.0386" lon="-0.96856">
        <ele>86</ele>
        <time>2022-09-05T10:20:49Z</time>
      </trkpt>
      <trkpt lat="47.03848" lon="-0.96832">
        <ele>87</ele>
        <time>2022-09-05T10:20:53Z</time>
      </trkpt>
      <trkpt lat="47.03773" lon="-0.96742">
        <ele>90</ele>
        <time>2022-09-05T10:21:10Z</time>
      </trkpt>
      <trkpt lat="47.03645" lon="-0.96547">
        <ele>94</ele>
        <time>2022-09-05T10:21:43Z</time>
      </trkpt>
      <trkpt lat="47.03624" lon="-0.96512">
        <ele>94</ele>
        <time>2022-09-05T10:21:49Z</time>
      </trkpt>
      <trkpt lat="47.03606" lon="-0.9646">
        <ele>95</ele>
        <time>2022-09-05T10:21:56Z</time>
      </trkpt>
      <trkpt lat="47.03588" lon="-0.96414">
        <ele>96</ele>
        <time>2022-09-05T10:22:02Z</time>
      </trkpt>
      <trkpt lat="47.03452" lon="-0.96105">
        <ele>96</ele>
        <time>2022-09-05T10:22:47Z</time>
      </trkpt>
      <trkpt lat="47.0341" lon="-0.96031">
        <ele>96</ele>
        <time>2022-09-05T10:22:58Z</time>
      </trkpt>
      <trkpt lat="47.03241" lon="-0.95799">
        <ele>100</ele>
        <time>2022-09-05T10:23:40Z</time>
      </trkpt>
      <trkpt lat="47.03219" lon="-0.95778">
        <ele>100</ele>
        <time>2022-09-05T10:23:44Z</time>
      </trkpt>
      <trkpt lat="47.03197" lon="-0.95763">
        <ele>101</ele>
        <time>2022-09-05T10:23:49Z</time>
      </trkpt>
      <trkpt lat="47.03146" lon="-0.95737">
        <ele>101</ele>
        <time>2022-09-05T10:23:58Z</time>
      </trkpt>
      <trkpt lat="47.03124" lon="-0.9572">
        <ele>101</ele>
        <time>2022-09-05T10:24:03Z</time>
      </trkpt>
      <trkpt lat="47.03103" lon="-0.95697">
        <ele>101</ele>
        <time>2022-09-05T10:24:07Z</time>
      </trkpt>
      <trkpt lat="47.03063" lon="-0.95641">
        <ele>101</ele>
        <time>2022-09-05T10:24:17Z</time>
      </trkpt>
      <trkpt lat="47.03046" lon="-0.95607">
        <ele>101</ele>
        <time>2022-09-05T10:24:22Z</time>
      </trkpt>
      <trkpt lat="47.02961" lon="-0.95381">
        <ele>99</ele>
        <time>2022-09-05T10:24:54Z</time>
      </trkpt>
      <trkpt lat="47.02924" lon="-0.95292">
        <ele>98</ele>
        <time>2022-09-05T10:25:06Z</time>
      </trkpt>
      <trkpt lat="47.02834" lon="-0.95068">
        <ele>98</ele>
        <time>2022-09-05T10:25:38Z</time>
      </trkpt>
      <trkpt lat="47.02815" lon="-0.95027">
        <ele>98</ele>
        <time>2022-09-05T10:25:44Z</time>
      </trkpt>
      <trkpt lat="47.02757" lon="-0.94932">
        <ele>97</ele>
        <time>2022-09-05T10:25:59Z</time>
      </trkpt>
      <trkpt lat="47.02733" lon="-0.9488">
        <ele>96</ele>
        <time>2022-09-05T10:26:07Z</time>
      </trkpt>
      <trkpt lat="47.02663" lon="-0.94705">
        <ele>99</ele>
        <time>2022-09-05T10:26:31Z</time>
      </trkpt>
      <trkpt lat="47.02752" lon="-0.94615">
        <ele>99</ele>
        <time>2022-09-05T10:26:51Z</time>
      </trkpt>
      <trkpt lat="47.02761" lon="-0.94601">
        <ele>98</ele>
        <time>2022-09-05T10:26:53Z</time>
      </trkpt>
      <trkpt lat="47.02748" lon="-0.94581">
        <ele>99</ele>
        <time>2022-09-05T10:26:56Z</time>
      </trkpt>
      <trkpt lat="47.02744" lon="-0.94547">
        <ele>99</ele>
        <time>2022-09-05T10:27:01Z</time>
      </trkpt>
      <trkpt lat="47.02742" lon="-0.94478">
        <ele>99</ele>
        <time>2022-09-05T10:27:09Z</time>
      </trkpt>
      <trkpt lat="47.02738" lon="-0.94451">
        <ele>98</ele>
        <time>2022-09-05T10:27:12Z</time>
      </trkpt>
      <trkpt lat="47.02731" lon="-0.94425">
        <ele>98</ele>
        <time>2022-09-05T10:27:16Z</time>
      </trkpt>
      <trkpt lat="47.02721" lon="-0.94397">
        <ele>97</ele>
        <time>2022-09-05T10:27:19Z</time>
      </trkpt>
      <trkpt lat="47.02709" lon="-0.94378">
        <ele>97</ele>
        <time>2022-09-05T10:27:23Z</time>
      </trkpt>
      <trkpt lat="47.02688" lon="-0.94358">
        <ele>97</ele>
        <time>2022-09-05T10:27:27Z</time>
      </trkpt>
      <trkpt lat="47.02678" lon="-0.94352">
        <ele>97</ele>
        <time>2022-09-05T10:27:29Z</time>
      </trkpt>
      <trkpt lat="47.02674" lon="-0.94356">
        <ele>97</ele>
        <time>2022-09-05T10:27:30Z</time>
      </trkpt>
      <trkpt lat="47.0267" lon="-0.94354">
        <ele>97</ele>
        <time>2022-09-05T10:27:31Z</time>
      </trkpt>
      <trkpt lat="47.02669" lon="-0.94346">
        <ele>97</ele>
        <time>2022-09-05T10:27:32Z</time>
      </trkpt>
      <trkpt lat="47.02583" lon="-0.94273">
        <ele>98</ele>
        <time>2022-09-05T10:27:49Z</time>
      </trkpt>
      <trkpt lat="47.0257" lon="-0.94253">
        <ele>98</ele>
        <time>2022-09-05T10:27:53Z</time>
      </trkpt>
      <trkpt lat="47.02516" lon="-0.94149">
        <ele>97</ele>
        <time>2022-09-05T10:28:08Z</time>
      </trkpt>
      <trkpt lat="47.02494" lon="-0.94114">
        <ele>98</ele>
        <time>2022-09-05T10:28:14Z</time>
      </trkpt>
      <trkpt lat="47.02276" lon="-0.93863">
        <ele>89</ele>
        <time>2022-09-05T10:29:04Z</time>
      </trkpt>
      <trkpt lat="47.02248" lon="-0.93828">
        <ele>88</ele>
        <time>2022-09-05T10:29:10Z</time>
      </trkpt>
      <trkpt lat="47.02237" lon="-0.93804">
        <ele>87</ele>
        <time>2022-09-05T10:29:14Z</time>
      </trkpt>
      <trkpt lat="47.02231" lon="-0.93785">
        <ele>87</ele>
        <time>2022-09-05T10:29:16Z</time>
      </trkpt>
      <trkpt lat="47.02229" lon="-0.93775">
        <ele>86</ele>
        <time>2022-09-05T10:29:17Z</time>
      </trkpt>
      <trkpt lat="47.02225" lon="-0.93755">
        <ele>86</ele>
        <time>2022-09-05T10:29:20Z</time>
      </trkpt>
      <trkpt lat="47.0222" lon="-0.93698">
        <ele>87</ele>
        <time>2022-09-05T10:29:27Z</time>
      </trkpt>
      <trkpt lat="47.02216" lon="-0.93674">
        <ele>88</ele>
        <time>2022-09-05T10:29:30Z</time>
      </trkpt>
      <trkpt lat="47.02211" lon="-0.93656">
        <ele>88</ele>
        <time>2022-09-05T10:29:32Z</time>
      </trkpt>
      <trkpt lat="47.02094" lon="-0.93424">
        <ele>98</ele>
        <time>2022-09-05T10:30:07Z</time>
      </trkpt>
      <trkpt lat="47.02061" lon="-0.9337">
        <ele>98</ele>
        <time>2022-09-05T10:30:16Z</time>
      </trkpt>
      <trkpt lat="47.02001" lon="-0.93258">
        <ele>99</ele>
        <time>2022-09-05T10:30:33Z</time>
      </trkpt>
      <trkpt lat="47.01976" lon="-0.93217">
        <ele>99</ele>
        <time>2022-09-05T10:30:40Z</time>
      </trkpt>
      <trkpt lat="47.01915" lon="-0.93129">
        <ele>100</ele>
        <time>2022-09-05T10:30:55Z</time>
      </trkpt>
      <trkpt lat="47.01798" lon="-0.92972">
        <ele>100</ele>
        <time>2022-09-05T10:31:23Z</time>
      </trkpt>
      <trkpt lat="47.01721" lon="-0.92872">
        <ele>103</ele>
        <time>2022-09-05T10:31:42Z</time>
      </trkpt>
      <trkpt lat="47.01684" lon="-0.9283">
        <ele>104</ele>
        <time>2022-09-05T10:31:50Z</time>
      </trkpt>
      <trkpt lat="47.01665" lon="-0.92814">
        <ele>105</ele>
        <time>2022-09-05T10:31:54Z</time>
      </trkpt>
      <trkpt lat="47.01659" lon="-0.9281">
        <ele>104</ele>
        <time>2022-09-05T10:31:55Z</time>
      </trkpt>
      <trkpt lat="47.01652" lon="-0.92809">
        <ele>104</ele>
        <time>2022-09-05T10:31:56Z</time>
      </trkpt>
      <trkpt lat="47.01642" lon="-0.92813">
        <ele>104</ele>
        <time>2022-09-05T10:31:58Z</time>
      </trkpt>
      <trkpt lat="47.01631" lon="-0.92809">
        <ele>104</ele>
        <time>2022-09-05T10:32:00Z</time>
      </trkpt>
      <trkpt lat="47.01624" lon="-0.92797">
        <ele>104</ele>
        <time>2022-09-05T10:32:02Z</time>
      </trkpt>
      <trkpt lat="47.01622" lon="-0.92788">
        <ele>104</ele>
        <time>2022-09-05T10:32:03Z</time>
      </trkpt>
      <trkpt lat="47.01623" lon="-0.92779">
        <ele>104</ele>
        <time>2022-09-05T10:32:04Z</time>
      </trkpt>
      <trkpt lat="47.01611" lon="-0.92753">
        <ele>104</ele>
        <time>2022-09-05T10:32:08Z</time>
      </trkpt>
      <trkpt lat="47.01592" lon="-0.92738">
        <ele>105</ele>
        <time>2022-09-05T10:32:12Z</time>
      </trkpt>
      <trkpt lat="47.01555" lon="-0.927">
        <ele>105</ele>
        <time>2022-09-05T10:32:20Z</time>
      </trkpt>
      <trkpt lat="47.01526" lon="-0.92671">
        <ele>105</ele>
        <time>2022-09-05T10:32:26Z</time>
      </trkpt>
      <trkpt lat="47.01504" lon="-0.92664">
        <ele>105</ele>
        <time>2022-09-05T10:32:30Z</time>
      </trkpt>
      <trkpt lat="47.01496" lon="-0.92666">
        <ele>105</ele>
        <time>2022-09-05T10:32:32Z</time>
      </trkpt>
      <trkpt lat="47.0149" lon="-0.92662">
        <ele>105</ele>
        <time>2022-09-05T10:32:33Z</time>
      </trkpt>
      <trkpt lat="47.01484" lon="-0.92652">
        <ele>105</ele>
        <time>2022-09-05T10:32:35Z</time>
      </trkpt>
      <trkpt lat="47.01484" lon="-0.92642">
        <ele>105</ele>
        <time>2022-09-05T10:32:36Z</time>
      </trkpt>
      <trkpt lat="47.01474" lon="-0.92626">
        <ele>106</ele>
        <time>2022-09-05T10:32:38Z</time>
      </trkpt>
      <trkpt lat="47.01462" lon="-0.92613">
        <ele>106</ele>
        <time>2022-09-05T10:32:41Z</time>
      </trkpt>
      <trkpt lat="47.01401" lon="-0.92564">
        <ele>108</ele>
        <time>2022-09-05T10:32:53Z</time>
      </trkpt>
      <trkpt lat="47.01363" lon="-0.92538">
        <ele>109</ele>
        <time>2022-09-05T10:33:01Z</time>
      </trkpt>
      <trkpt lat="47.01352" lon="-0.92535">
        <ele>109</ele>
        <time>2022-09-05T10:33:03Z</time>
      </trkpt>
      <trkpt lat="47.01287" lon="-0.92532">
        <ele>108</ele>
        <time>2022-09-05T10:33:15Z</time>
      </trkpt>
      <trkpt lat="47.01265" lon="-0.92525">
        <ele>108</ele>
        <time>2022-09-05T10:33:19Z</time>
      </trkpt>
      <trkpt lat="47.01231" lon="-0.92506">
        <ele>108</ele>
        <time>2022-09-05T10:33:25Z</time>
      </trkpt>
      <trkpt lat="47.01211" lon="-0.9249">
        <ele>109</ele>
        <time>2022-09-05T10:33:29Z</time>
      </trkpt>
      <trkpt lat="47.01145" lon="-0.92419">
        <ele>111</ele>
        <time>2022-09-05T10:33:44Z</time>
      </trkpt>
      <trkpt lat="47.0105" lon="-0.9233">
        <ele>110</ele>
        <time>2022-09-05T10:34:04Z</time>
      </trkpt>
      <trkpt lat="47.01041" lon="-0.92317">
        <ele>110</ele>
        <time>2022-09-05T10:34:06Z</time>
      </trkpt>
      <trkpt lat="47.01034" lon="-0.92304">
        <ele>110</ele>
        <time>2022-09-05T10:34:08Z</time>
      </trkpt>
      <trkpt lat="47.01027" lon="-0.92285">
        <ele>110</ele>
        <time>2022-09-05T10:34:11Z</time>
      </trkpt>
      <trkpt lat="47.01008" lon="-0.9222">
        <ele>111</ele>
        <time>2022-09-05T10:34:19Z</time>
      </trkpt>
      <trkpt lat="47.01002" lon="-0.92188">
        <ele>111</ele>
        <time>2022-09-05T10:34:23Z</time>
      </trkpt>
      <trkpt lat="47.00997" lon="-0.92147">
        <ele>111</ele>
        <time>2022-09-05T10:34:28Z</time>
      </trkpt>
      <trkpt lat="47.00989" lon="-0.92012">
        <ele>113</ele>
        <time>2022-09-05T10:34:45Z</time>
      </trkpt>
      <trkpt lat="47.00986" lon="-0.9199">
        <ele>113</ele>
        <time>2022-09-05T10:34:47Z</time>
      </trkpt>
      <trkpt lat="47.00979" lon="-0.91959">
        <ele>113</ele>
        <time>2022-09-05T10:34:51Z</time>
      </trkpt>
      <trkpt lat="47.00956" lon="-0.91888">
        <ele>112</ele>
        <time>2022-09-05T10:35:01Z</time>
      </trkpt>
      <trkpt lat="47.00943" lon="-0.91855">
        <ele>112</ele>
        <time>2022-09-05T10:35:05Z</time>
      </trkpt>
      <trkpt lat="47.00913" lon="-0.9179">
        <ele>111</ele>
        <time>2022-09-05T10:35:15Z</time>
      </trkpt>
      <trkpt lat="47.00854" lon="-0.91682">
        <ele>111</ele>
        <time>2022-09-05T10:35:32Z</time>
      </trkpt>
      <trkpt lat="47.00836" lon="-0.91643">
        <ele>111</ele>
        <time>2022-09-05T10:35:38Z</time>
      </trkpt>
      <trkpt lat="47.00813" lon="-0.91581">
        <ele>113</ele>
        <time>2022-09-05T10:35:46Z</time>
      </trkpt>
      <trkpt lat="47.00789" lon="-0.91511">
        <ele>114</ele>
        <time>2022-09-05T10:35:56Z</time>
      </trkpt>
      <trkpt lat="47.0078" lon="-0.91465">
        <ele>115</ele>
        <time>2022-09-05T10:36:01Z</time>
      </trkpt>
      <trkpt lat="47.00778" lon="-0.91438">
        <ele>115</ele>
        <time>2022-09-05T10:36:05Z</time>
      </trkpt>
      <trkpt lat="47.00778" lon="-0.91382">
        <ele>116</ele>
        <time>2022-09-05T10:36:11Z</time>
      </trkpt>
      <trkpt lat="47.00777" lon="-0.91351">
        <ele>117</ele>
        <time>2022-09-05T10:36:15Z</time>
      </trkpt>
      <trkpt lat="47.00764" lon="-0.91245">
        <ele>119</ele>
        <time>2022-09-05T10:36:28Z</time>
      </trkpt>
      <trkpt lat="47.00754" lon="-0.91176">
        <ele>120</ele>
        <time>2022-09-05T10:36:37Z</time>
      </trkpt>
      <trkpt lat="47.00746" lon="-0.91143">
        <ele>120</ele>
        <time>2022-09-05T10:36:41Z</time>
      </trkpt>
      <trkpt lat="47.00719" lon="-0.91065">
        <ele>120</ele>
        <time>2022-09-05T10:36:52Z</time>
      </trkpt>
      <trkpt lat="47.00701" lon="-0.9099">
        <ele>121</ele>
        <time>2022-09-05T10:37:01Z</time>
      </trkpt>
      <trkpt lat="47.00646" lon="-0.90809">
        <ele>124</ele>
        <time>2022-09-05T10:37:25Z</time>
      </trkpt>
      <trkpt lat="47.0063" lon="-0.90741">
        <ele>124</ele>
        <time>2022-09-05T10:37:34Z</time>
      </trkpt>
      <trkpt lat="47.00616" lon="-0.90693">
        <ele>124</ele>
        <time>2022-09-05T10:37:40Z</time>
      </trkpt>
      <trkpt lat="47.006" lon="-0.90657">
        <ele>125</ele>
        <time>2022-09-05T10:37:46Z</time>
      </trkpt>
      <trkpt lat="47.00577" lon="-0.90622">
        <ele>126</ele>
        <time>2022-09-05T10:37:52Z</time>
      </trkpt>
      <trkpt lat="47.00566" lon="-0.90601">
        <ele>126</ele>
        <time>2022-09-05T10:37:55Z</time>
      </trkpt>
      <trkpt lat="47.00558" lon="-0.90578">
        <ele>126</ele>
        <time>2022-09-05T10:37:58Z</time>
      </trkpt>
      <trkpt lat="47.00553" lon="-0.90553">
        <ele>127</ele>
        <time>2022-09-05T10:38:01Z</time>
      </trkpt>
      <trkpt lat="47.00552" lon="-0.90539">
        <ele>127</ele>
        <time>2022-09-05T10:38:03Z</time>
      </trkpt>
      <trkpt lat="47.00552" lon="-0.90513">
        <ele>127</ele>
        <time>2022-09-05T10:38:06Z</time>
      </trkpt>
      <trkpt lat="47.00562" lon="-0.90436">
        <ele>126</ele>
        <time>2022-09-05T10:38:15Z</time>
      </trkpt>
      <trkpt lat="47.00563" lon="-0.9041">
        <ele>126</ele>
        <time>2022-09-05T10:38:19Z</time>
      </trkpt>
      <trkpt lat="47.00559" lon="-0.9038">
        <ele>126</ele>
        <time>2022-09-05T10:38:22Z</time>
      </trkpt>
      <trkpt lat="47.00553" lon="-0.90361">
        <ele>126</ele>
        <time>2022-09-05T10:38:25Z</time>
      </trkpt>
      <trkpt lat="47.00544" lon="-0.90338">
        <ele>126</ele>
        <time>2022-09-05T10:38:28Z</time>
      </trkpt>
      <trkpt lat="47.00529" lon="-0.90315">
        <ele>127</ele>
        <time>2022-09-05T10:38:32Z</time>
      </trkpt>
      <trkpt lat="47.00503" lon="-0.90276">
        <ele>129</ele>
        <time>2022-09-05T10:38:39Z</time>
      </trkpt>
      <trkpt lat="47.00448" lon="-0.9019">
        <ele>130</ele>
        <time>2022-09-05T10:38:53Z</time>
      </trkpt>
      <trkpt lat="47.00425" lon="-0.90149">
        <ele>129</ele>
        <time>2022-09-05T10:38:59Z</time>
      </trkpt>
      <trkpt lat="47.00312" lon="-0.89879">
        <ele>135</ele>
        <time>2022-09-05T10:39:38Z</time>
      </trkpt>
      <trkpt lat="47.003" lon="-0.89837">
        <ele>135</ele>
        <time>2022-09-05T10:39:43Z</time>
      </trkpt>
      <trkpt lat="47.0029" lon="-0.89794">
        <ele>136</ele>
        <time>2022-09-05T10:39:49Z</time>
      </trkpt>
      <trkpt lat="47.00263" lon="-0.89727">
        <ele>139</ele>
        <time>2022-09-05T10:39:58Z</time>
      </trkpt>
      <trkpt lat="47.00256" lon="-0.89705">
        <ele>140</ele>
        <time>2022-09-05T10:40:01Z</time>
      </trkpt>
      <trkpt lat="47.00235" lon="-0.89613">
        <ele>143</ele>
        <time>2022-09-05T10:40:13Z</time>
      </trkpt>
      <trkpt lat="47.00227" lon="-0.89534">
        <ele>144</ele>
        <time>2022-09-05T10:40:23Z</time>
      </trkpt>
      <trkpt lat="47.00211" lon="-0.89458">
        <ele>144</ele>
        <time>2022-09-05T10:40:32Z</time>
      </trkpt>
      <trkpt lat="47.00209" lon="-0.89443">
        <ele>144</ele>
        <time>2022-09-05T10:40:34Z</time>
      </trkpt>
      <trkpt lat="47.00209" lon="-0.89432">
        <ele>144</ele>
        <time>2022-09-05T10:40:36Z</time>
      </trkpt>
      <trkpt lat="47.00206" lon="-0.89431">
        <ele>145</ele>
        <time>2022-09-05T10:40:36Z</time>
      </trkpt>
      <trkpt lat="47.00204" lon="-0.89426">
        <ele>145</ele>
        <time>2022-09-05T10:40:37Z</time>
      </trkpt>
      <trkpt lat="47.00205" lon="-0.89422">
        <ele>145</ele>
        <time>2022-09-05T10:40:37Z</time>
      </trkpt>
      <trkpt lat="47.00208" lon="-0.8942">
        <ele>145</ele>
        <time>2022-09-05T10:40:38Z</time>
      </trkpt>
      <trkpt lat="47.00197" lon="-0.89337">
        <ele>145</ele>
        <time>2022-09-05T10:40:48Z</time>
      </trkpt>
      <trkpt lat="47.00189" lon="-0.89292">
        <ele>145</ele>
        <time>2022-09-05T10:40:54Z</time>
      </trkpt>
      <trkpt lat="47.00176" lon="-0.89239">
        <ele>146</ele>
        <time>2022-09-05T10:41:01Z</time>
      </trkpt>
      <trkpt lat="47.00164" lon="-0.89204">
        <ele>146</ele>
        <time>2022-09-05T10:41:05Z</time>
      </trkpt>
      <trkpt lat="47.00158" lon="-0.89204">
        <ele>146</ele>
        <time>2022-09-05T10:41:06Z</time>
      </trkpt>
      <trkpt lat="47.00153" lon="-0.89199">
        <ele>146</ele>
        <time>2022-09-05T10:41:07Z</time>
      </trkpt>
      <trkpt lat="47.00152" lon="-0.89188">
        <ele>146</ele>
        <time>2022-09-05T10:41:09Z</time>
      </trkpt>
      <trkpt lat="47.00155" lon="-0.89181">
        <ele>146</ele>
        <time>2022-09-05T10:41:10Z</time>
      </trkpt>
      <trkpt lat="47.00122" lon="-0.89097">
        <ele>145</ele>
        <time>2022-09-05T10:41:22Z</time>
      </trkpt>
      <trkpt lat="46.99972" lon="-0.89119">
        <ele>145</ele>
        <time>2022-09-05T10:41:48Z</time>
      </trkpt>
      <trkpt lat="46.99928" lon="-0.89128">
        <ele>146</ele>
        <time>2022-09-05T10:41:56Z</time>
      </trkpt>
      <trkpt lat="46.99889" lon="-0.8914">
        <ele>145</ele>
        <time>2022-09-05T10:42:03Z</time>
      </trkpt>
      <trkpt lat="46.99844" lon="-0.8916">
        <ele>144</ele>
        <time>2022-09-05T10:42:12Z</time>
      </trkpt>
      <trkpt lat="46.99796" lon="-0.89189">
        <ele>144</ele>
        <time>2022-09-05T10:42:21Z</time>
      </trkpt>
      <trkpt lat="46.99749" lon="-0.89224">
        <ele>142</ele>
        <time>2022-09-05T10:42:30Z</time>
      </trkpt>
      <trkpt lat="46.99737" lon="-0.89228">
        <ele>141</ele>
        <time>2022-09-05T10:42:33Z</time>
      </trkpt>
      <trkpt lat="46.99737" lon="-0.89238">
        <ele>141</ele>
        <time>2022-09-05T10:42:34Z</time>
      </trkpt>
      <trkpt lat="46.99736" lon="-0.89242">
        <ele>141</ele>
        <time>2022-09-05T10:42:34Z</time>
      </trkpt>
      <trkpt lat="46.99731" lon="-0.89248">
        <ele>140</ele>
        <time>2022-09-05T10:42:35Z</time>
      </trkpt>
      <trkpt lat="46.99724" lon="-0.89248">
        <ele>140</ele>
        <time>2022-09-05T10:42:37Z</time>
      </trkpt>
      <trkpt lat="46.99719" lon="-0.89243">
        <ele>140</ele>
        <time>2022-09-05T10:42:38Z</time>
      </trkpt>
      <trkpt lat="46.99716" lon="-0.89233">
        <ele>140</ele>
        <time>2022-09-05T10:42:39Z</time>
      </trkpt>
      <trkpt lat="46.99719" lon="-0.89224">
        <ele>140</ele>
        <time>2022-09-05T10:42:40Z</time>
      </trkpt>
      <trkpt lat="46.99724" lon="-0.89218">
        <ele>141</ele>
        <time>2022-09-05T10:42:41Z</time>
      </trkpt>
      <trkpt lat="46.99714" lon="-0.89181">
        <ele>141</ele>
        <time>2022-09-05T10:42:46Z</time>
      </trkpt>
      <trkpt lat="46.99687" lon="-0.891">
        <ele>140</ele>
        <time>2022-09-05T10:42:57Z</time>
      </trkpt>
      <trkpt lat="46.9969" lon="-0.89001">
        <ele>144</ele>
        <time>2022-09-05T10:43:09Z</time>
      </trkpt>
      <trkpt lat="46.99694" lon="-0.88977">
        <ele>144</ele>
        <time>2022-09-05T10:43:12Z</time>
      </trkpt>
      <trkpt lat="46.99714" lon="-0.88915">
        <ele>146</ele>
        <time>2022-09-05T10:43:21Z</time>
      </trkpt>
      <trkpt lat="46.99722" lon="-0.88883">
        <ele>148</ele>
        <time>2022-09-05T10:43:25Z</time>
      </trkpt>
      <trkpt lat="46.99726" lon="-0.88855">
        <ele>149</ele>
        <time>2022-09-05T10:43:28Z</time>
      </trkpt>
      <trkpt lat="46.99737" lon="-0.88694">
        <ele>160</ele>
        <time>2022-09-05T10:43:48Z</time>
      </trkpt>
      <trkpt lat="46.99747" lon="-0.88614">
        <ele>164</ele>
        <time>2022-09-05T10:43:58Z</time>
      </trkpt>
      <trkpt lat="46.99757" lon="-0.88448">
        <ele>167</ele>
        <time>2022-09-05T10:44:18Z</time>
      </trkpt>
      <trkpt lat="46.99755" lon="-0.8843">
        <ele>167</ele>
        <time>2022-09-05T10:44:20Z</time>
      </trkpt>
      <trkpt lat="46.9975" lon="-0.8841">
        <ele>167</ele>
        <time>2022-09-05T10:44:23Z</time>
      </trkpt>
      <trkpt lat="46.99728" lon="-0.88369">
        <ele>165</ele>
        <time>2022-09-05T10:44:29Z</time>
      </trkpt>
      <trkpt lat="46.9967" lon="-0.88215">
        <ele>163</ele>
        <time>2022-09-05T10:44:50Z</time>
      </trkpt>
      <trkpt lat="46.99666" lon="-0.88196">
        <ele>164</ele>
        <time>2022-09-05T10:44:53Z</time>
      </trkpt>
      <trkpt lat="46.99666" lon="-0.88189">
        <ele>164</ele>
        <time>2022-09-05T10:44:54Z</time>
      </trkpt>
      <trkpt lat="46.99662" lon="-0.88184">
        <ele>164</ele>
        <time>2022-09-05T10:44:55Z</time>
      </trkpt>
      <trkpt lat="46.99638" lon="-0.8813">
        <ele>168</ele>
        <time>2022-09-05T10:45:02Z</time>
      </trkpt>
      <trkpt lat="46.99629" lon="-0.88104">
        <ele>169</ele>
        <time>2022-09-05T10:45:06Z</time>
      </trkpt>
      <trkpt lat="46.99594" lon="-0.87986">
        <ele>174</ele>
        <time>2022-09-05T10:45:22Z</time>
      </trkpt>
      <trkpt lat="46.99577" lon="-0.87932">
        <ele>175</ele>
        <time>2022-09-05T10:45:29Z</time>
      </trkpt>
      <trkpt lat="46.99447" lon="-0.87584">
        <ele>176</ele>
        <time>2022-09-05T10:46:17Z</time>
      </trkpt>
      <trkpt lat="46.99341" lon="-0.8731">
        <ele>177</ele>
        <time>2022-09-05T10:46:55Z</time>
      </trkpt>
      <trkpt lat="46.993" lon="-0.87234">
        <ele>177</ele>
        <time>2022-09-05T10:47:07Z</time>
      </trkpt>
      <trkpt lat="46.99181" lon="-0.8703">
        <ele>176</ele>
        <time>2022-09-05T10:47:40Z</time>
      </trkpt>
      <trkpt lat="46.99167" lon="-0.8701">
        <ele>177</ele>
        <time>2022-09-05T10:47:43Z</time>
      </trkpt>
      <trkpt lat="46.99084" lon="-0.86931">
        <ele>176</ele>
        <time>2022-09-05T10:48:01Z</time>
      </trkpt>
      <trkpt lat="46.99063" lon="-0.86906">
        <ele>176</ele>
        <time>2022-09-05T10:48:05Z</time>
      </trkpt>
      <trkpt lat="46.99052" lon="-0.86883">
        <ele>176</ele>
        <time>2022-09-05T10:48:09Z</time>
      </trkpt>
      <trkpt lat="46.99042" lon="-0.86856">
        <ele>176</ele>
        <time>2022-09-05T10:48:13Z</time>
      </trkpt>
      <trkpt lat="46.99035" lon="-0.86828">
        <ele>175</ele>
        <time>2022-09-05T10:48:16Z</time>
      </trkpt>
      <trkpt lat="46.99015" lon="-0.86747">
        <ele>177</ele>
        <time>2022-09-05T10:48:27Z</time>
      </trkpt>
      <trkpt lat="46.99006" lon="-0.86692">
        <ele>179</ele>
        <time>2022-09-05T10:48:34Z</time>
      </trkpt>
      <trkpt lat="46.99001" lon="-0.86672">
        <ele>180</ele>
        <time>2022-09-05T10:48:36Z</time>
      </trkpt>
      <trkpt lat="46.98971" lon="-0.86575">
        <ele>182</ele>
        <time>2022-09-05T10:48:49Z</time>
      </trkpt>
      <trkpt lat="46.98955" lon="-0.86538">
        <ele>182</ele>
        <time>2022-09-05T10:48:54Z</time>
      </trkpt>
      <trkpt lat="46.989" lon="-0.86439">
        <ele>182</ele>
        <time>2022-09-05T10:49:10Z</time>
      </trkpt>
      <trkpt lat="46.98894" lon="-0.86423">
        <ele>182</ele>
        <time>2022-09-05T10:49:12Z</time>
      </trkpt>
      <trkpt lat="46.98847" lon="-0.86254">
        <ele>181</ele>
        <time>2022-09-05T10:49:34Z</time>
      </trkpt>
      <trkpt lat="46.98839" lon="-0.86239">
        <ele>181</ele>
        <time>2022-09-05T10:49:37Z</time>
      </trkpt>
      <trkpt lat="46.98808" lon="-0.86197">
        <ele>181</ele>
        <time>2022-09-05T10:49:44Z</time>
      </trkpt>
      <trkpt lat="46.988" lon="-0.86182">
        <ele>181</ele>
        <time>2022-09-05T10:49:46Z</time>
      </trkpt>
      <trkpt lat="46.9874" lon="-0.86023">
        <ele>179</ele>
        <time>2022-09-05T10:50:08Z</time>
      </trkpt>
      <trkpt lat="46.98659" lon="-0.85825">
        <ele>177</ele>
        <time>2022-09-05T10:50:36Z</time>
      </trkpt>
      <trkpt lat="46.98625" lon="-0.85756">
        <ele>173</ele>
        <time>2022-09-05T10:50:47Z</time>
      </trkpt>
      <trkpt lat="46.98556" lon="-0.85638">
        <ele>165</ele>
        <time>2022-09-05T10:51:06Z</time>
      </trkpt>
      <trkpt lat="46.98547" lon="-0.85622">
        <ele>164</ele>
        <time>2022-09-05T10:51:08Z</time>
      </trkpt>
      <trkpt lat="46.98542" lon="-0.85608">
        <ele>163</ele>
        <time>2022-09-05T10:51:10Z</time>
      </trkpt>
      <trkpt lat="46.98539" lon="-0.85582">
        <ele>161</ele>
        <time>2022-09-05T10:51:13Z</time>
      </trkpt>
      <trkpt lat="46.98542" lon="-0.85563">
        <ele>161</ele>
        <time>2022-09-05T10:51:16Z</time>
      </trkpt>
      <trkpt lat="46.98552" lon="-0.85519">
        <ele>159</ele>
        <time>2022-09-05T10:51:21Z</time>
      </trkpt>
      <trkpt lat="46.98555" lon="-0.85497">
        <ele>158</ele>
        <time>2022-09-05T10:51:24Z</time>
      </trkpt>
      <trkpt lat="46.98561" lon="-0.85432">
        <ele>156</ele>
        <time>2022-09-05T10:51:32Z</time>
      </trkpt>
      <trkpt lat="46.98563" lon="-0.85398">
        <ele>155</ele>
        <time>2022-09-05T10:51:36Z</time>
      </trkpt>
      <trkpt lat="46.98561" lon="-0.85323">
        <ele>153</ele>
        <time>2022-09-05T10:51:45Z</time>
      </trkpt>
      <trkpt lat="46.98558" lon="-0.85287">
        <ele>152</ele>
        <time>2022-09-05T10:51:50Z</time>
      </trkpt>
      <trkpt lat="46.98533" lon="-0.85146">
        <ele>151</ele>
        <time>2022-09-05T10:52:07Z</time>
      </trkpt>
      <trkpt lat="46.98528" lon="-0.85089">
        <ele>149</ele>
        <time>2022-09-05T10:52:14Z</time>
      </trkpt>
      <trkpt lat="46.98522" lon="-0.84976">
        <ele>148</ele>
        <time>2022-09-05T10:52:28Z</time>
      </trkpt>
      <trkpt lat="46.98518" lon="-0.84821">
        <ele>148</ele>
        <time>2022-09-05T10:52:47Z</time>
      </trkpt>
      <trkpt lat="46.98519" lon="-0.84786">
        <ele>148</ele>
        <time>2022-09-05T10:52:51Z</time>
      </trkpt>
      <trkpt lat="46.98521" lon="-0.8476">
        <ele>148</ele>
        <time>2022-09-05T10:52:54Z</time>
      </trkpt>
      <trkpt lat="46.98536" lon="-0.84658">
        <ele>149</ele>
        <time>2022-09-05T10:53:07Z</time>
      </trkpt>
      <trkpt lat="46.98546" lon="-0.84481">
        <ele>150</ele>
        <time>2022-09-05T10:53:28Z</time>
      </trkpt>
      <trkpt lat="46.98549" lon="-0.84461">
        <ele>150</ele>
        <time>2022-09-05T10:53:31Z</time>
      </trkpt>
      <trkpt lat="46.98477" lon="-0.8446">
        <ele>149</ele>
        <time>2022-09-05T10:53:44Z</time>
      </trkpt>
      <trkpt lat="46.98351" lon="-0.84466">
        <ele>148</ele>
        <time>2022-09-05T10:54:06Z</time>
      </trkpt>
      <trkpt lat="46.98315" lon="-0.84461">
        <ele>147</ele>
        <time>2022-09-05T10:54:13Z</time>
      </trkpt>
      <trkpt lat="46.98158" lon="-0.8442">
        <ele>144</ele>
        <time>2022-09-05T10:54:41Z</time>
      </trkpt>
      <trkpt lat="46.98093" lon="-0.84409">
        <ele>144</ele>
        <time>2022-09-05T10:54:53Z</time>
      </trkpt>
      <trkpt lat="46.9806" lon="-0.84408">
        <ele>143</ele>
        <time>2022-09-05T10:54:59Z</time>
      </trkpt>
      <trkpt lat="46.97906" lon="-0.84425">
        <ele>141</ele>
        <time>2022-09-05T10:55:26Z</time>
      </trkpt>
      <trkpt lat="46.97857" lon="-0.84429">
        <ele>139</ele>
        <time>2022-09-05T10:55:35Z</time>
      </trkpt>
      <trkpt lat="46.97815" lon="-0.84425">
        <ele>138</ele>
        <time>2022-09-05T10:55:42Z</time>
      </trkpt>
      <trkpt lat="46.97726" lon="-0.84403">
        <ele>136</ele>
        <time>2022-09-05T10:55:58Z</time>
      </trkpt>
      <trkpt lat="46.97616" lon="-0.84374">
        <ele>138</ele>
        <time>2022-09-05T10:56:18Z</time>
      </trkpt>
      <trkpt lat="46.97598" lon="-0.84372">
        <ele>138</ele>
        <time>2022-09-05T10:56:21Z</time>
      </trkpt>
      <trkpt lat="46.9757" lon="-0.84379">
        <ele>138</ele>
        <time>2022-09-05T10:56:26Z</time>
      </trkpt>
      <trkpt lat="46.97537" lon="-0.84395">
        <ele>139</ele>
        <time>2022-09-05T10:56:33Z</time>
      </trkpt>
      <trkpt lat="46.97515" lon="-0.84412">
        <ele>140</ele>
        <time>2022-09-05T10:56:37Z</time>
      </trkpt>
      <trkpt lat="46.97455" lon="-0.84471">
        <ele>142</ele>
        <time>2022-09-05T10:56:50Z</time>
      </trkpt>
      <trkpt lat="46.97397" lon="-0.8454">
        <ele>147</ele>
        <time>2022-09-05T10:57:03Z</time>
      </trkpt>
      <trkpt lat="46.97364" lon="-0.84577">
        <ele>151</ele>
        <time>2022-09-05T10:57:11Z</time>
      </trkpt>
      <trkpt lat="46.97319" lon="-0.84619">
        <ele>154</ele>
        <time>2022-09-05T10:57:20Z</time>
      </trkpt>
      <trkpt lat="46.97316" lon="-0.84616">
        <ele>155</ele>
        <time>2022-09-05T10:57:21Z</time>
      </trkpt>
      <trkpt lat="46.9728" lon="-0.84606">
        <ele>158</ele>
        <time>2022-09-05T10:57:27Z</time>
      </trkpt>
      <trkpt lat="46.97124" lon="-0.84596">
        <ele>167</ele>
        <time>2022-09-05T10:57:55Z</time>
      </trkpt>
      <trkpt lat="46.97109" lon="-0.84592">
        <ele>167</ele>
        <time>2022-09-05T10:57:58Z</time>
      </trkpt>
      <trkpt lat="46.9709" lon="-0.84583">
        <ele>167</ele>
        <time>2022-09-05T10:58:01Z</time>
      </trkpt>
      <trkpt lat="46.97034" lon="-0.84544">
        <ele>169</ele>
        <time>2022-09-05T10:58:12Z</time>
      </trkpt>
      <trkpt lat="46.97018" lon="-0.84537">
        <ele>169</ele>
        <time>2022-09-05T10:58:15Z</time>
      </trkpt>
      <trkpt lat="46.96954" lon="-0.84536">
        <ele>170</ele>
        <time>2022-09-05T10:58:27Z</time>
      </trkpt>
      <trkpt lat="46.96926" lon="-0.84537">
        <ele>170</ele>
        <time>2022-09-05T10:58:32Z</time>
      </trkpt>
      <trkpt lat="46.96902" lon="-0.84544">
        <ele>170</ele>
        <time>2022-09-05T10:58:36Z</time>
      </trkpt>
      <trkpt lat="46.96886" lon="-0.84543">
        <ele>170</ele>
        <time>2022-09-05T10:58:39Z</time>
      </trkpt>
      <trkpt lat="46.96875" lon="-0.84533">
        <ele>169</ele>
        <time>2022-09-05T10:58:41Z</time>
      </trkpt>
      <trkpt lat="46.9687" lon="-0.84525">
        <ele>169</ele>
        <time>2022-09-05T10:58:42Z</time>
      </trkpt>
      <trkpt lat="46.96802" lon="-0.84385">
        <ele>168</ele>
        <time>2022-09-05T10:59:03Z</time>
      </trkpt>
      <trkpt lat="46.96793" lon="-0.84375">
        <ele>168</ele>
        <time>2022-09-05T10:59:05Z</time>
      </trkpt>
      <trkpt lat="46.96782" lon="-0.84376">
        <ele>167</ele>
        <time>2022-09-05T10:59:07Z</time>
      </trkpt>
      <trkpt lat="46.96752" lon="-0.84399">
        <ele>166</ele>
        <time>2022-09-05T10:59:13Z</time>
      </trkpt>
      <trkpt lat="46.96742" lon="-0.84404">
        <ele>164</ele>
        <time>2022-09-05T10:59:15Z</time>
      </trkpt>
      <trkpt lat="46.96731" lon="-0.84405">
        <ele>163</ele>
        <time>2022-09-05T10:59:17Z</time>
      </trkpt>
      <trkpt lat="46.96662" lon="-0.84389">
        <ele>156</ele>
        <time>2022-09-05T10:59:30Z</time>
      </trkpt>
      <trkpt lat="46.9664" lon="-0.84376">
        <ele>154</ele>
        <time>2022-09-05T10:59:34Z</time>
      </trkpt>
      <trkpt lat="46.96625" lon="-0.8436">
        <ele>153</ele>
        <time>2022-09-05T10:59:37Z</time>
      </trkpt>
      <trkpt lat="46.96604" lon="-0.84322">
        <ele>152</ele>
        <time>2022-09-05T10:59:43Z</time>
      </trkpt>
      <trkpt lat="46.96595" lon="-0.84312">
        <ele>152</ele>
        <time>2022-09-05T10:59:45Z</time>
      </trkpt>
      <trkpt lat="46.96584" lon="-0.84302">
        <ele>152</ele>
        <time>2022-09-05T10:59:47Z</time>
      </trkpt>
      <trkpt lat="46.9655" lon="-0.84285">
        <ele>147</ele>
        <time>2022-09-05T10:59:54Z</time>
      </trkpt>
      <trkpt lat="46.96531" lon="-0.84271">
        <ele>145</ele>
        <time>2022-09-05T10:59:58Z</time>
      </trkpt>
      <trkpt lat="46.96509" lon="-0.84242">
        <ele>142</ele>
        <time>2022-09-05T11:00:03Z</time>
      </trkpt>
      <trkpt lat="46.96471" lon="-0.8419">
        <ele>140</ele>
        <time>2022-09-05T11:00:12Z</time>
      </trkpt>
      <trkpt lat="46.96449" lon="-0.84176">
        <ele>137</ele>
        <time>2022-09-05T11:00:16Z</time>
      </trkpt>
      <trkpt lat="46.96374" lon="-0.84144">
        <ele>128</ele>
        <time>2022-09-05T11:00:30Z</time>
      </trkpt>
      <trkpt lat="46.96301" lon="-0.84103">
        <ele>121</ele>
        <time>2022-09-05T11:00:44Z</time>
      </trkpt>
      <trkpt lat="46.96284" lon="-0.841">
        <ele>119</ele>
        <time>2022-09-05T11:00:47Z</time>
      </trkpt>
      <trkpt lat="46.96269" lon="-0.84104">
        <ele>118</ele>
        <time>2022-09-05T11:00:50Z</time>
      </trkpt>
      <trkpt lat="46.96253" lon="-0.84118">
        <ele>116</ele>
        <time>2022-09-05T11:00:53Z</time>
      </trkpt>
      <trkpt lat="46.96228" lon="-0.84146">
        <ele>115</ele>
        <time>2022-09-05T11:00:59Z</time>
      </trkpt>
      <trkpt lat="46.96213" lon="-0.84163">
        <ele>115</ele>
        <time>2022-09-05T11:01:02Z</time>
      </trkpt>
      <trkpt lat="46.96194" lon="-0.84179">
        <ele>115</ele>
        <time>2022-09-05T11:01:06Z</time>
      </trkpt>
      <trkpt lat="46.96175" lon="-0.84188">
        <ele>115</ele>
        <time>2022-09-05T11:01:10Z</time>
      </trkpt>
      <trkpt lat="46.96103" lon="-0.84208">
        <ele>116</ele>
        <time>2022-09-05T11:01:23Z</time>
      </trkpt>
      <trkpt lat="46.9608" lon="-0.84212">
        <ele>116</ele>
        <time>2022-09-05T11:01:27Z</time>
      </trkpt>
      <trkpt lat="46.96056" lon="-0.84209">
        <ele>116</ele>
        <time>2022-09-05T11:01:31Z</time>
      </trkpt>
      <trkpt lat="46.95998" lon="-0.84179">
        <ele>116</ele>
        <time>2022-09-05T11:01:42Z</time>
      </trkpt>
      <trkpt lat="46.95979" lon="-0.84163">
        <ele>116</ele>
        <time>2022-09-05T11:01:46Z</time>
      </trkpt>
      <trkpt lat="46.95933" lon="-0.84109">
        <ele>116</ele>
        <time>2022-09-05T11:01:56Z</time>
      </trkpt>
      <trkpt lat="46.95922" lon="-0.841">
        <ele>116</ele>
        <time>2022-09-05T11:01:59Z</time>
      </trkpt>
      <trkpt lat="46.95911" lon="-0.84094">
        <ele>116</ele>
        <time>2022-09-05T11:02:01Z</time>
      </trkpt>
      <trkpt lat="46.95862" lon="-0.84088">
        <ele>117</ele>
        <time>2022-09-05T11:02:10Z</time>
      </trkpt>
      <trkpt lat="46.95844" lon="-0.8408">
        <ele>118</ele>
        <time>2022-09-05T11:02:13Z</time>
      </trkpt>
      <trkpt lat="46.95819" lon="-0.84061">
        <ele>118</ele>
        <time>2022-09-05T11:02:18Z</time>
      </trkpt>
      <trkpt lat="46.95674" lon="-0.83938">
        <ele>123</ele>
        <time>2022-09-05T11:02:48Z</time>
      </trkpt>
      <trkpt lat="46.9555" lon="-0.83815">
        <ele>125</ele>
        <time>2022-09-05T11:03:14Z</time>
      </trkpt>
      <trkpt lat="46.95538" lon="-0.83813">
        <ele>126</ele>
        <time>2022-09-05T11:03:16Z</time>
      </trkpt>
      <trkpt lat="46.95527" lon="-0.83816">
        <ele>126</ele>
        <time>2022-09-05T11:03:18Z</time>
      </trkpt>
      <trkpt lat="46.95384" lon="-0.83913">
        <ele>134</ele>
        <time>2022-09-05T11:03:47Z</time>
      </trkpt>
      <trkpt lat="46.95376" lon="-0.83913">
        <ele>135</ele>
        <time>2022-09-05T11:03:48Z</time>
      </trkpt>
      <trkpt lat="46.95358" lon="-0.83906">
        <ele>135</ele>
        <time>2022-09-05T11:03:51Z</time>
      </trkpt>
      <trkpt lat="46.95349" lon="-0.83892">
        <ele>135</ele>
        <time>2022-09-05T11:03:54Z</time>
      </trkpt>
      <trkpt lat="46.95325" lon="-0.83843">
        <ele>135</ele>
        <time>2022-09-05T11:04:01Z</time>
      </trkpt>
      <trkpt lat="46.95302" lon="-0.83807">
        <ele>134</ele>
        <time>2022-09-05T11:04:07Z</time>
      </trkpt>
      <trkpt lat="46.95278" lon="-0.83784">
        <ele>134</ele>
        <time>2022-09-05T11:04:12Z</time>
      </trkpt>
      <trkpt lat="46.95144" lon="-0.83664">
        <ele>135</ele>
        <time>2022-09-05T11:04:40Z</time>
      </trkpt>
      <trkpt lat="46.95117" lon="-0.83645">
        <ele>135</ele>
        <time>2022-09-05T11:04:45Z</time>
      </trkpt>
      <trkpt lat="46.95085" lon="-0.83629">
        <ele>135</ele>
        <time>2022-09-05T11:04:51Z</time>
      </trkpt>
      <trkpt lat="46.94983" lon="-0.83586">
        <ele>138</ele>
        <time>2022-09-05T11:05:10Z</time>
      </trkpt>
      <trkpt lat="46.94949" lon="-0.8358">
        <ele>141</ele>
        <time>2022-09-05T11:05:16Z</time>
      </trkpt>
      <trkpt lat="46.9485" lon="-0.83549">
        <ele>152</ele>
        <time>2022-09-05T11:05:34Z</time>
      </trkpt>
      <trkpt lat="46.94825" lon="-0.83546">
        <ele>155</ele>
        <time>2022-09-05T11:05:39Z</time>
      </trkpt>
      <trkpt lat="46.94808" lon="-0.83546">
        <ele>155</ele>
        <time>2022-09-05T11:05:42Z</time>
      </trkpt>
      <trkpt lat="46.94798" lon="-0.8355">
        <ele>156</ele>
        <time>2022-09-05T11:05:44Z</time>
      </trkpt>
      <trkpt lat="46.9479" lon="-0.8356">
        <ele>158</ele>
        <time>2022-09-05T11:05:45Z</time>
      </trkpt>
      <trkpt lat="46.94783" lon="-0.83574">
        <ele>159</ele>
        <time>2022-09-05T11:05:48Z</time>
      </trkpt>
      <trkpt lat="46.94774" lon="-0.83609">
        <ele>162</ele>
        <time>2022-09-05T11:05:52Z</time>
      </trkpt>
      <trkpt lat="46.94758" lon="-0.83656">
        <ele>165</ele>
        <time>2022-09-05T11:05:59Z</time>
      </trkpt>
      <trkpt lat="46.94757" lon="-0.83666">
        <ele>166</ele>
        <time>2022-09-05T11:06:00Z</time>
      </trkpt>
      <trkpt lat="46.94725" lon="-0.83683">
        <ele>166</ele>
        <time>2022-09-05T11:06:06Z</time>
      </trkpt>
      <trkpt lat="46.94709" lon="-0.8369">
        <ele>166</ele>
        <time>2022-09-05T11:06:09Z</time>
      </trkpt>
      <trkpt lat="46.94695" lon="-0.837">
        <ele>167</ele>
        <time>2022-09-05T11:06:12Z</time>
      </trkpt>
      <trkpt lat="46.94504" lon="-0.83765">
        <ele>171</ele>
        <time>2022-09-05T11:06:46Z</time>
      </trkpt>
      <trkpt lat="46.94496" lon="-0.8377">
        <ele>171</ele>
        <time>2022-09-05T11:06:48Z</time>
      </trkpt>
      <trkpt lat="46.94494" lon="-0.83765">
        <ele>171</ele>
        <time>2022-09-05T11:06:49Z</time>
      </trkpt>
      <trkpt lat="46.94353" lon="-0.83617">
        <ele>163</ele>
        <time>2022-09-05T11:07:20Z</time>
      </trkpt>
      <trkpt lat="46.9434" lon="-0.83596">
        <ele>162</ele>
        <time>2022-09-05T11:07:23Z</time>
      </trkpt>
      <trkpt lat="46.94285" lon="-0.83466">
        <ele>170</ele>
        <time>2022-09-05T11:07:42Z</time>
      </trkpt>
      <trkpt lat="46.94266" lon="-0.83435">
        <ele>174</ele>
        <time>2022-09-05T11:07:47Z</time>
      </trkpt>
      <trkpt lat="46.9425" lon="-0.83419">
        <ele>177</ele>
        <time>2022-09-05T11:07:50Z</time>
      </trkpt>
      <trkpt lat="46.94186" lon="-0.83377">
        <ele>187</ele>
        <time>2022-09-05T11:08:03Z</time>
      </trkpt>
      <trkpt lat="46.94165" lon="-0.83354">
        <ele>190</ele>
        <time>2022-09-05T11:08:07Z</time>
      </trkpt>
      <trkpt lat="46.94141" lon="-0.83315">
        <ele>192</ele>
        <time>2022-09-05T11:08:14Z</time>
      </trkpt>
      <trkpt lat="46.94135" lon="-0.83304">
        <ele>192</ele>
        <time>2022-09-05T11:08:15Z</time>
      </trkpt>
      <trkpt lat="46.94084" lon="-0.83175">
        <ele>192</ele>
        <time>2022-09-05T11:08:33Z</time>
      </trkpt>
      <trkpt lat="46.94076" lon="-0.83142">
        <ele>193</ele>
        <time>2022-09-05T11:08:38Z</time>
      </trkpt>
      <trkpt lat="46.94068" lon="-0.8305">
        <ele>195</ele>
        <time>2022-09-05T11:08:49Z</time>
      </trkpt>
      <trkpt lat="46.93982" lon="-0.8301">
        <ele>204</ele>
        <time>2022-09-05T11:09:05Z</time>
      </trkpt>
      <trkpt lat="46.93949" lon="-0.82998">
        <ele>206</ele>
        <time>2022-09-05T11:09:11Z</time>
      </trkpt>
      <trkpt lat="46.93905" lon="-0.82987">
        <ele>209</ele>
        <time>2022-09-05T11:09:19Z</time>
      </trkpt>
      <trkpt lat="46.93873" lon="-0.82986">
        <ele>211</ele>
        <time>2022-09-05T11:09:25Z</time>
      </trkpt>
      <trkpt lat="46.93862" lon="-0.8299">
        <ele>212</ele>
        <time>2022-09-05T11:09:27Z</time>
      </trkpt>
      <trkpt lat="46.93853" lon="-0.82997">
        <ele>213</ele>
        <time>2022-09-05T11:09:29Z</time>
      </trkpt>
      <trkpt lat="46.93819" lon="-0.83036">
        <ele>214</ele>
        <time>2022-09-05T11:09:36Z</time>
      </trkpt>
      <trkpt lat="46.93799" lon="-0.83054">
        <ele>215</ele>
        <time>2022-09-05T11:09:40Z</time>
      </trkpt>
      <trkpt lat="46.93741" lon="-0.83093">
        <ele>215</ele>
        <time>2022-09-05T11:09:52Z</time>
      </trkpt>
      <trkpt lat="46.93666" lon="-0.83157">
        <ele>212</ele>
        <time>2022-09-05T11:10:07Z</time>
      </trkpt>
      <trkpt lat="46.93651" lon="-0.83165">
        <ele>212</ele>
        <time>2022-09-05T11:10:10Z</time>
      </trkpt>
      <trkpt lat="46.93606" lon="-0.83191">
        <ele>209</ele>
        <time>2022-09-05T11:10:19Z</time>
      </trkpt>
      <trkpt lat="46.93593" lon="-0.83195">
        <ele>208</ele>
        <time>2022-09-05T11:10:21Z</time>
      </trkpt>
      <trkpt lat="46.93535" lon="-0.83201">
        <ele>207</ele>
        <time>2022-09-05T11:10:31Z</time>
      </trkpt>
      <trkpt lat="46.93522" lon="-0.83206">
        <ele>207</ele>
        <time>2022-09-05T11:10:34Z</time>
      </trkpt>
      <trkpt lat="46.93507" lon="-0.83214">
        <ele>207</ele>
        <time>2022-09-05T11:10:37Z</time>
      </trkpt>
      <trkpt lat="46.93481" lon="-0.83234">
        <ele>207</ele>
        <time>2022-09-05T11:10:42Z</time>
      </trkpt>
      <trkpt lat="46.93461" lon="-0.83252">
        <ele>207</ele>
        <time>2022-09-05T11:10:46Z</time>
      </trkpt>
      <trkpt lat="46.93453" lon="-0.83264">
        <ele>207</ele>
        <time>2022-09-05T11:10:48Z</time>
      </trkpt>
      <trkpt lat="46.93447" lon="-0.8328">
        <ele>207</ele>
        <time>2022-09-05T11:10:50Z</time>
      </trkpt>
      <trkpt lat="46.93438" lon="-0.8332">
        <ele>206</ele>
        <time>2022-09-05T11:10:55Z</time>
      </trkpt>
      <trkpt lat="46.93433" lon="-0.83333">
        <ele>206</ele>
        <time>2022-09-05T11:10:57Z</time>
      </trkpt>
      <trkpt lat="46.93428" lon="-0.83341">
        <ele>206</ele>
        <time>2022-09-05T11:10:58Z</time>
      </trkpt>
      <trkpt lat="46.93414" lon="-0.83297">
        <ele>206</ele>
        <time>2022-09-05T11:11:04Z</time>
      </trkpt>
      <trkpt lat="46.93406" lon="-0.83287">
        <ele>206</ele>
        <time>2022-09-05T11:11:06Z</time>
      </trkpt>
      <trkpt lat="46.93391" lon="-0.83286">
        <ele>206</ele>
        <time>2022-09-05T11:11:09Z</time>
      </trkpt>
      <trkpt lat="46.93384" lon="-0.83289">
        <ele>206</ele>
        <time>2022-09-05T11:11:10Z</time>
      </trkpt>
      <trkpt lat="46.93255" lon="-0.83648">
        <ele>209</ele>
        <time>2022-09-05T11:11:59Z</time>
      </trkpt>
      <trkpt lat="46.93217" lon="-0.83757">
        <ele>208</ele>
        <time>2022-09-05T11:12:14Z</time>
      </trkpt>
      <trkpt lat="46.93207" lon="-0.83781">
        <ele>206</ele>
        <time>2022-09-05T11:12:18Z</time>
      </trkpt>
      <trkpt lat="46.93194" lon="-0.83806">
        <ele>205</ele>
        <time>2022-09-05T11:12:22Z</time>
      </trkpt>
      <trkpt lat="46.93178" lon="-0.83828">
        <ele>204</ele>
        <time>2022-09-05T11:12:25Z</time>
      </trkpt>
      <trkpt lat="46.93154" lon="-0.83855">
        <ele>202</ele>
        <time>2022-09-05T11:12:31Z</time>
      </trkpt>
      <trkpt lat="46.92633" lon="-0.84375">
        <ele>193</ele>
        <time>2022-09-05T11:14:23Z</time>
      </trkpt>
      <trkpt lat="46.92604" lon="-0.84392">
        <ele>192</ele>
        <time>2022-09-05T11:14:29Z</time>
      </trkpt>
      <trkpt lat="46.92605" lon="-0.84402">
        <ele>192</ele>
        <time>2022-09-05T11:14:30Z</time>
      </trkpt>
      <trkpt lat="46.92604" lon="-0.84406">
        <ele>192</ele>
        <time>2022-09-05T11:14:30Z</time>
      </trkpt>
      <trkpt lat="46.926" lon="-0.84413">
        <ele>191</ele>
        <time>2022-09-05T11:14:31Z</time>
      </trkpt>
      <trkpt lat="46.92593" lon="-0.84415">
        <ele>191</ele>
        <time>2022-09-05T11:14:33Z</time>
      </trkpt>
      <trkpt lat="46.92587" lon="-0.84409">
        <ele>191</ele>
        <time>2022-09-05T11:14:34Z</time>
      </trkpt>
      <trkpt lat="46.92566" lon="-0.84437">
        <ele>191</ele>
        <time>2022-09-05T11:14:39Z</time>
      </trkpt>
      <trkpt lat="46.92457" lon="-0.84529">
        <ele>190</ele>
        <time>2022-09-05T11:15:01Z</time>
      </trkpt>
      <trkpt lat="46.92399" lon="-0.84574">
        <ele>187</ele>
        <time>2022-09-05T11:15:13Z</time>
      </trkpt>
      <trkpt lat="46.92232" lon="-0.84684">
        <ele>183</ele>
        <time>2022-09-05T11:15:46Z</time>
      </trkpt>
      <trkpt lat="46.92183" lon="-0.84724">
        <ele>183</ele>
        <time>2022-09-05T11:15:56Z</time>
      </trkpt>
      <trkpt lat="46.92119" lon="-0.84759">
        <ele>183</ele>
        <time>2022-09-05T11:16:08Z</time>
      </trkpt>
      <trkpt lat="46.92082" lon="-0.84776">
        <ele>183</ele>
        <time>2022-09-05T11:16:15Z</time>
      </trkpt>
      <trkpt lat="46.92073" lon="-0.84787">
        <ele>183</ele>
        <time>2022-09-05T11:16:17Z</time>
      </trkpt>
      <trkpt lat="46.92055" lon="-0.8482">
        <ele>182</ele>
        <time>2022-09-05T11:16:22Z</time>
      </trkpt>
      <trkpt lat="46.92044" lon="-0.84831">
        <ele>182</ele>
        <time>2022-09-05T11:16:24Z</time>
      </trkpt>
      <trkpt lat="46.92033" lon="-0.84834">
        <ele>182</ele>
        <time>2022-09-05T11:16:26Z</time>
      </trkpt>
      <trkpt lat="46.92001" lon="-0.84834">
        <ele>182</ele>
        <time>2022-09-05T11:16:32Z</time>
      </trkpt>
      <trkpt lat="46.91981" lon="-0.8484">
        <ele>182</ele>
        <time>2022-09-05T11:16:36Z</time>
      </trkpt>
      <trkpt lat="46.9197" lon="-0.84846">
        <ele>182</ele>
        <time>2022-09-05T11:16:38Z</time>
      </trkpt>
      <trkpt lat="46.91962" lon="-0.84857">
        <ele>182</ele>
        <time>2022-09-05T11:16:40Z</time>
      </trkpt>
      <trkpt lat="46.91959" lon="-0.84868">
        <ele>182</ele>
        <time>2022-09-05T11:16:41Z</time>
      </trkpt>
      <trkpt lat="46.91949" lon="-0.84926">
        <ele>180</ele>
        <time>2022-09-05T11:16:48Z</time>
      </trkpt>
      <trkpt lat="46.91933" lon="-0.85051">
        <ele>176</ele>
        <time>2022-09-05T11:17:04Z</time>
      </trkpt>
      <trkpt lat="46.91928" lon="-0.85068">
        <ele>175</ele>
        <time>2022-09-05T11:17:06Z</time>
      </trkpt>
      <trkpt lat="46.91922" lon="-0.85077">
        <ele>175</ele>
        <time>2022-09-05T11:17:08Z</time>
      </trkpt>
      <trkpt lat="46.91902" lon="-0.85095">
        <ele>173</ele>
        <time>2022-09-05T11:17:12Z</time>
      </trkpt>
      <trkpt lat="46.91845" lon="-0.85118">
        <ele>171</ele>
        <time>2022-09-05T11:17:22Z</time>
      </trkpt>
      <trkpt lat="46.91814" lon="-0.85121">
        <ele>169</ele>
        <time>2022-09-05T11:17:28Z</time>
      </trkpt>
      <trkpt lat="46.91734" lon="-0.85112">
        <ele>166</ele>
        <time>2022-09-05T11:17:42Z</time>
      </trkpt>
      <trkpt lat="46.91706" lon="-0.85117">
        <ele>166</ele>
        <time>2022-09-05T11:17:47Z</time>
      </trkpt>
      <trkpt lat="46.91686" lon="-0.85126">
        <ele>165</ele>
        <time>2022-09-05T11:17:51Z</time>
      </trkpt>
      <trkpt lat="46.9167" lon="-0.85135">
        <ele>165</ele>
        <time>2022-09-05T11:17:54Z</time>
      </trkpt>
      <trkpt lat="46.91631" lon="-0.85166">
        <ele>164</ele>
        <time>2022-09-05T11:18:02Z</time>
      </trkpt>
      <trkpt lat="46.91513" lon="-0.85276">
        <ele>154</ele>
        <time>2022-09-05T11:18:27Z</time>
      </trkpt>
      <trkpt lat="46.91476" lon="-0.85313">
        <ele>157</ele>
        <time>2022-09-05T11:18:35Z</time>
      </trkpt>
      <trkpt lat="46.91463" lon="-0.85335">
        <ele>158</ele>
        <time>2022-09-05T11:18:38Z</time>
      </trkpt>
      <trkpt lat="46.91456" lon="-0.85352">
        <ele>159</ele>
        <time>2022-09-05T11:18:41Z</time>
      </trkpt>
      <trkpt lat="46.91433" lon="-0.85437">
        <ele>160</ele>
        <time>2022-09-05T11:18:52Z</time>
      </trkpt>
      <trkpt lat="46.91404" lon="-0.85573">
        <ele>153</ele>
        <time>2022-09-05T11:19:09Z</time>
      </trkpt>
      <trkpt lat="46.91402" lon="-0.85589">
        <ele>152</ele>
        <time>2022-09-05T11:19:11Z</time>
      </trkpt>
      <trkpt lat="46.914" lon="-0.85616">
        <ele>150</ele>
        <time>2022-09-05T11:19:14Z</time>
      </trkpt>
      <trkpt lat="46.914" lon="-0.8564">
        <ele>149</ele>
        <time>2022-09-05T11:19:17Z</time>
      </trkpt>
      <trkpt lat="46.91404" lon="-0.85736">
        <ele>147</ele>
        <time>2022-09-05T11:19:29Z</time>
      </trkpt>
      <trkpt lat="46.91403" lon="-0.85762">
        <ele>146</ele>
        <time>2022-09-05T11:19:32Z</time>
      </trkpt>
      <trkpt lat="46.91384" lon="-0.85972">
        <ele>143</ele>
        <time>2022-09-05T11:19:58Z</time>
      </trkpt>
      <trkpt lat="46.9139" lon="-0.86102">
        <ele>139</ele>
        <time>2022-09-05T11:20:14Z</time>
      </trkpt>
      <trkpt lat="46.91388" lon="-0.86124">
        <ele>139</ele>
        <time>2022-09-05T11:20:16Z</time>
      </trkpt>
      <trkpt lat="46.91379" lon="-0.86163">
        <ele>138</ele>
        <time>2022-09-05T11:20:21Z</time>
      </trkpt>
      <trkpt lat="46.91369" lon="-0.86187">
        <ele>137</ele>
        <time>2022-09-05T11:20:25Z</time>
      </trkpt>
      <trkpt lat="46.91304" lon="-0.86311">
        <ele>138</ele>
        <time>2022-09-05T11:20:44Z</time>
      </trkpt>
      <trkpt lat="46.91288" lon="-0.86343">
        <ele>140</ele>
        <time>2022-09-05T11:20:49Z</time>
      </trkpt>
      <trkpt lat="46.91238" lon="-0.86489">
        <ele>138</ele>
        <time>2022-09-05T11:21:09Z</time>
      </trkpt>
      <trkpt lat="46.91223" lon="-0.86521">
        <ele>137</ele>
        <time>2022-09-05T11:21:13Z</time>
      </trkpt>
      <trkpt lat="46.91207" lon="-0.86539">
        <ele>137</ele>
        <time>2022-09-05T11:21:17Z</time>
      </trkpt>
      <trkpt lat="46.91197" lon="-0.86546">
        <ele>138</ele>
        <time>2022-09-05T11:21:19Z</time>
      </trkpt>
      <trkpt lat="46.9116" lon="-0.86544">
        <ele>138</ele>
        <time>2022-09-05T11:21:25Z</time>
      </trkpt>
      <trkpt lat="46.91147" lon="-0.8654">
        <ele>138</ele>
        <time>2022-09-05T11:21:28Z</time>
      </trkpt>
      <trkpt lat="46.91128" lon="-0.8653">
        <ele>137</ele>
        <time>2022-09-05T11:21:31Z</time>
      </trkpt>
      <trkpt lat="46.91121" lon="-0.86529">
        <ele>136</ele>
        <time>2022-09-05T11:21:33Z</time>
      </trkpt>
      <trkpt lat="46.91117" lon="-0.86532">
        <ele>136</ele>
        <time>2022-09-05T11:21:33Z</time>
      </trkpt>
      <trkpt lat="46.91088" lon="-0.86578">
        <ele>129</ele>
        <time>2022-09-05T11:21:41Z</time>
      </trkpt>
      <trkpt lat="46.91065" lon="-0.8662">
        <ele>128</ele>
        <time>2022-09-05T11:21:48Z</time>
      </trkpt>
      <trkpt lat="46.91014" lon="-0.86725">
        <ele>127</ele>
        <time>2022-09-05T11:22:03Z</time>
      </trkpt>
      <trkpt lat="46.91014" lon="-0.86739">
        <ele>128</ele>
        <time>2022-09-05T11:22:05Z</time>
      </trkpt>
      <trkpt lat="46.91018" lon="-0.86754">
        <ele>128</ele>
        <time>2022-09-05T11:22:07Z</time>
      </trkpt>
      <trkpt lat="46.91025" lon="-0.86768">
        <ele>129</ele>
        <time>2022-09-05T11:22:09Z</time>
      </trkpt>
      <trkpt lat="46.91039" lon="-0.86787">
        <ele>130</ele>
        <time>2022-09-05T11:22:12Z</time>
      </trkpt>
      <trkpt lat="46.91054" lon="-0.86818">
        <ele>131</ele>
        <time>2022-09-05T11:22:17Z</time>
      </trkpt>
      <trkpt lat="46.91106" lon="-0.86939">
        <ele>132</ele>
        <time>2022-09-05T11:22:34Z</time>
      </trkpt>
      <trkpt lat="46.91111" lon="-0.86954">
        <ele>132</ele>
        <time>2022-09-05T11:22:36Z</time>
      </trkpt>
      <trkpt lat="46.91113" lon="-0.86971">
        <ele>132</ele>
        <time>2022-09-05T11:22:38Z</time>
      </trkpt>
      <trkpt lat="46.91115" lon="-0.87011">
        <ele>131</ele>
        <time>2022-09-05T11:22:43Z</time>
      </trkpt>
      <trkpt lat="46.9112" lon="-0.87038">
        <ele>130</ele>
        <time>2022-09-05T11:22:47Z</time>
      </trkpt>
      <trkpt lat="46.91128" lon="-0.87058">
        <ele>128</ele>
        <time>2022-09-05T11:22:50Z</time>
      </trkpt>
      <trkpt lat="46.91135" lon="-0.87069">
        <ele>128</ele>
        <time>2022-09-05T11:22:51Z</time>
      </trkpt>
      <trkpt lat="46.9114" lon="-0.87075">
        <ele>127</ele>
        <time>2022-09-05T11:22:53Z</time>
      </trkpt>
      <trkpt lat="46.91143" lon="-0.87088">
        <ele>127</ele>
        <time>2022-09-05T11:22:54Z</time>
      </trkpt>
      <trkpt lat="46.91149" lon="-0.87103">
        <ele>126</ele>
        <time>2022-09-05T11:22:56Z</time>
      </trkpt>
      <trkpt lat="46.91159" lon="-0.87117">
        <ele>125</ele>
        <time>2022-09-05T11:22:59Z</time>
      </trkpt>
      <trkpt lat="46.91164" lon="-0.87138">
        <ele>125</ele>
        <time>2022-09-05T11:23:02Z</time>
      </trkpt>
      <trkpt lat="46.91248" lon="-0.87341">
        <ele>133</ele>
        <time>2022-09-05T11:23:30Z</time>
      </trkpt>
      <trkpt lat="46.91254" lon="-0.8737">
        <ele>134</ele>
        <time>2022-09-05T11:23:34Z</time>
      </trkpt>
      <trkpt lat="46.91259" lon="-0.87401">
        <ele>135</ele>
        <time>2022-09-05T11:23:38Z</time>
      </trkpt>
      <trkpt lat="46.91275" lon="-0.8754">
        <ele>140</ele>
        <time>2022-09-05T11:23:55Z</time>
      </trkpt>
      <trkpt lat="46.9128" lon="-0.87567">
        <ele>142</ele>
        <time>2022-09-05T11:23:58Z</time>
      </trkpt>
      <trkpt lat="46.91287" lon="-0.87592">
        <ele>143</ele>
        <time>2022-09-05T11:24:02Z</time>
      </trkpt>
      <trkpt lat="46.91298" lon="-0.87618">
        <ele>144</ele>
        <time>2022-09-05T11:24:05Z</time>
      </trkpt>
      <trkpt lat="46.91356" lon="-0.87713">
        <ele>147</ele>
        <time>2022-09-05T11:24:21Z</time>
      </trkpt>
      <trkpt lat="46.91372" lon="-0.87733">
        <ele>148</ele>
        <time>2022-09-05T11:24:25Z</time>
      </trkpt>
      <trkpt lat="46.91415" lon="-0.8777">
        <ele>149</ele>
        <time>2022-09-05T11:24:34Z</time>
      </trkpt>
      <trkpt lat="46.91434" lon="-0.87795">
        <ele>149</ele>
        <time>2022-09-05T11:24:38Z</time>
      </trkpt>
      <trkpt lat="46.91462" lon="-0.87838">
        <ele>150</ele>
        <time>2022-09-05T11:24:45Z</time>
      </trkpt>
      <trkpt lat="46.91615" lon="-0.88112">
        <ele>159</ele>
        <time>2022-09-05T11:25:28Z</time>
      </trkpt>
      <trkpt lat="46.91701" lon="-0.88267">
        <ele>159</ele>
        <time>2022-09-05T11:25:53Z</time>
      </trkpt>
      <trkpt lat="46.91716" lon="-0.88287">
        <ele>158</ele>
        <time>2022-09-05T11:25:56Z</time>
      </trkpt>
      <trkpt lat="46.91752" lon="-0.88319">
        <ele>156</ele>
        <time>2022-09-05T11:26:04Z</time>
      </trkpt>
      <trkpt lat="46.91939" lon="-0.88418">
        <ele>145</ele>
        <time>2022-09-05T11:26:39Z</time>
      </trkpt>
      <trkpt lat="46.9195" lon="-0.88425">
        <ele>144</ele>
        <time>2022-09-05T11:26:41Z</time>
      </trkpt>
      <trkpt lat="46.9197" lon="-0.88445">
        <ele>143</ele>
        <time>2022-09-05T11:26:46Z</time>
      </trkpt>
      <trkpt lat="46.92027" lon="-0.88522">
        <ele>144</ele>
        <time>2022-09-05T11:26:59Z</time>
      </trkpt>
      <trkpt lat="46.92102" lon="-0.88605">
        <ele>150</ele>
        <time>2022-09-05T11:27:16Z</time>
      </trkpt>
      <trkpt lat="46.92115" lon="-0.88623">
        <ele>151</ele>
        <time>2022-09-05T11:27:19Z</time>
      </trkpt>
      <trkpt lat="46.92125" lon="-0.88644">
        <ele>152</ele>
        <time>2022-09-05T11:27:22Z</time>
      </trkpt>
      <trkpt lat="46.92133" lon="-0.88674">
        <ele>153</ele>
        <time>2022-09-05T11:27:26Z</time>
      </trkpt>
      <trkpt lat="46.92143" lon="-0.88718">
        <ele>156</ele>
        <time>2022-09-05T11:27:32Z</time>
      </trkpt>
      <trkpt lat="46.92156" lon="-0.88812">
        <ele>161</ele>
        <time>2022-09-05T11:27:44Z</time>
      </trkpt>
      <trkpt lat="46.9216" lon="-0.88876">
        <ele>163</ele>
        <time>2022-09-05T11:27:51Z</time>
      </trkpt>
      <trkpt lat="46.92167" lon="-0.88926">
        <ele>165</ele>
        <time>2022-09-05T11:27:58Z</time>
      </trkpt>
      <trkpt lat="46.92177" lon="-0.88973">
        <ele>167</ele>
        <time>2022-09-05T11:28:04Z</time>
      </trkpt>
      <trkpt lat="46.92189" lon="-0.89013">
        <ele>168</ele>
        <time>2022-09-05T11:28:09Z</time>
      </trkpt>
      <trkpt lat="46.92203" lon="-0.8904">
        <ele>169</ele>
        <time>2022-09-05T11:28:13Z</time>
      </trkpt>
      <trkpt lat="46.92245" lon="-0.89104">
        <ele>172</ele>
        <time>2022-09-05T11:28:24Z</time>
      </trkpt>
      <trkpt lat="46.92257" lon="-0.89126">
        <ele>173</ele>
        <time>2022-09-05T11:28:27Z</time>
      </trkpt>
      <trkpt lat="46.92267" lon="-0.89148">
        <ele>173</ele>
        <time>2022-09-05T11:28:30Z</time>
      </trkpt>
      <trkpt lat="46.92291" lon="-0.89233">
        <ele>176</ele>
        <time>2022-09-05T11:28:42Z</time>
      </trkpt>
      <trkpt lat="46.92304" lon="-0.8927">
        <ele>177</ele>
        <time>2022-09-05T11:28:47Z</time>
      </trkpt>
      <trkpt lat="46.9232" lon="-0.89305">
        <ele>178</ele>
        <time>2022-09-05T11:28:52Z</time>
      </trkpt>
      <trkpt lat="46.92463" lon="-0.89535">
        <ele>182</ele>
        <time>2022-09-05T11:29:30Z</time>
      </trkpt>
      <trkpt lat="46.92482" lon="-0.89561">
        <ele>182</ele>
        <time>2022-09-05T11:29:34Z</time>
      </trkpt>
      <trkpt lat="46.92496" lon="-0.89577">
        <ele>183</ele>
        <time>2022-09-05T11:29:37Z</time>
      </trkpt>
      <trkpt lat="46.9257" lon="-0.89644">
        <ele>183</ele>
        <time>2022-09-05T11:29:53Z</time>
      </trkpt>
      <trkpt lat="46.92576" lon="-0.89638">
        <ele>183</ele>
        <time>2022-09-05T11:29:54Z</time>
      </trkpt>
      <trkpt lat="46.92582" lon="-0.89639">
        <ele>183</ele>
        <time>2022-09-05T11:29:55Z</time>
      </trkpt>
      <trkpt lat="46.92584" lon="-0.89642">
        <ele>183</ele>
        <time>2022-09-05T11:29:56Z</time>
      </trkpt>
      <trkpt lat="46.92586" lon="-0.8965">
        <ele>183</ele>
        <time>2022-09-05T11:29:57Z</time>
      </trkpt>
      <trkpt lat="46.92584" lon="-0.89657">
        <ele>183</ele>
        <time>2022-09-05T11:29:58Z</time>
      </trkpt>
      <trkpt lat="46.92579" lon="-0.89661">
        <ele>183</ele>
        <time>2022-09-05T11:29:59Z</time>
      </trkpt>
      <trkpt lat="46.92572" lon="-0.89659">
        <ele>183</ele>
        <time>2022-09-05T11:30:00Z</time>
      </trkpt>
      <trkpt lat="46.92564" lon="-0.89672">
        <ele>183</ele>
        <time>2022-09-05T11:30:02Z</time>
      </trkpt>
      <trkpt lat="46.92537" lon="-0.89731">
        <ele>183</ele>
        <time>2022-09-05T11:30:11Z</time>
      </trkpt>
      <trkpt lat="46.92563" lon="-0.89758">
        <ele>185</ele>
        <time>2022-09-05T11:30:16Z</time>
      </trkpt>
      <trkpt lat="46.92484" lon="-0.89936">
        <ele>184</ele>
        <time>2022-09-05T11:30:42Z</time>
      </trkpt>
      <trkpt lat="46.92514" lon="-0.89968">
        <ele>186</ele>
        <time>2022-09-05T11:30:49Z</time>
      </trkpt>
      <trkpt lat="46.92525" lon="-0.90031">
        <ele>188</ele>
        <time>2022-09-05T11:30:57Z</time>
      </trkpt>
      <trkpt lat="46.92533" lon="-0.9003">
        <ele>188</ele>
        <time>2022-09-05T11:30:58Z</time>
      </trkpt>
      <trkpt lat="46.9254" lon="-0.90037">
        <ele>189</ele>
        <time>2022-09-05T11:31:00Z</time>
      </trkpt>
      <trkpt lat="46.92542" lon="-0.90047">
        <ele>189</ele>
        <time>2022-09-05T11:31:01Z</time>
      </trkpt>
      <trkpt lat="46.92541" lon="-0.90059">
        <ele>189</ele>
        <time>2022-09-05T11:31:02Z</time>
      </trkpt>
      <trkpt lat="46.92535" lon="-0.90067">
        <ele>189</ele>
        <time>2022-09-05T11:31:04Z</time>
      </trkpt>
      <trkpt lat="46.92531" lon="-0.90068">
        <ele>189</ele>
        <time>2022-09-05T11:31:04Z</time>
      </trkpt>
      <trkpt lat="46.92522" lon="-0.90065">
        <ele>188</ele>
        <time>2022-09-05T11:31:06Z</time>
      </trkpt>
      <trkpt lat="46.92519" lon="-0.90061">
        <ele>188</ele>
        <time>2022-09-05T11:31:07Z</time>
      </trkpt>
      <trkpt lat="46.92516" lon="-0.90049">
        <ele>188</ele>
        <time>2022-09-05T11:31:08Z</time>
      </trkpt>
      <trkpt lat="46.92471" lon="-0.90055">
        <ele>185</ele>
        <time>2022-09-05T11:31:16Z</time>
      </trkpt>
      <trkpt lat="46.92455" lon="-0.9006">
        <ele>184</ele>
        <time>2022-09-05T11:31:19Z</time>
      </trkpt>
      <trkpt lat="46.92417" lon="-0.90077">
        <ele>182</ele>
        <time>2022-09-05T11:31:26Z</time>
      </trkpt>
      <trkpt lat="46.92382" lon="-0.90105">
        <ele>182</ele>
        <time>2022-09-05T11:31:34Z</time>
      </trkpt>
      <trkpt lat="46.92223" lon="-0.90259">
        <ele>181</ele>
        <time>2022-09-05T11:32:07Z</time>
      </trkpt>
      <trkpt lat="46.92188" lon="-0.90283">
        <ele>179</ele>
        <time>2022-09-05T11:32:14Z</time>
      </trkpt>
      <trkpt lat="46.92168" lon="-0.90289">
        <ele>179</ele>
        <time>2022-09-05T11:32:18Z</time>
      </trkpt>
      <trkpt lat="46.92153" lon="-0.90291">
        <ele>178</ele>
        <time>2022-09-05T11:32:21Z</time>
      </trkpt>
      <trkpt lat="46.92121" lon="-0.90286">
        <ele>176</ele>
        <time>2022-09-05T11:32:26Z</time>
      </trkpt>
      <trkpt lat="46.92095" lon="-0.90273">
        <ele>175</ele>
        <time>2022-09-05T11:32:31Z</time>
      </trkpt>
      <trkpt lat="46.9206" lon="-0.90246">
        <ele>175</ele>
        <time>2022-09-05T11:32:38Z</time>
      </trkpt>
      <trkpt lat="46.91734" lon="-0.89934">
        <ele>157</ele>
        <time>2022-09-05T11:33:48Z</time>
      </trkpt>
      <trkpt lat="46.91725" lon="-0.89934">
        <ele>156</ele>
        <time>2022-09-05T11:33:49Z</time>
      </trkpt>
      <trkpt lat="46.91714" lon="-0.8993">
        <ele>155</ele>
        <time>2022-09-05T11:33:51Z</time>
      </trkpt>
      <trkpt lat="46.917" lon="-0.89916">
        <ele>155</ele>
        <time>2022-09-05T11:33:54Z</time>
      </trkpt>
      <trkpt lat="46.91685" lon="-0.89897">
        <ele>154</ele>
        <time>2022-09-05T11:33:58Z</time>
      </trkpt>
      <trkpt lat="46.91679" lon="-0.89883">
        <ele>154</ele>
        <time>2022-09-05T11:34:00Z</time>
      </trkpt>
      <trkpt lat="46.91679" lon="-0.89877">
        <ele>154</ele>
        <time>2022-09-05T11:34:00Z</time>
      </trkpt>
      <trkpt lat="46.91678" lon="-0.8987">
        <ele>154</ele>
        <time>2022-09-05T11:34:01Z</time>
      </trkpt>
      <trkpt lat="46.91679" lon="-0.89862">
        <ele>155</ele>
        <time>2022-09-05T11:34:02Z</time>
      </trkpt>
      <trkpt lat="46.91657" lon="-0.8982">
        <ele>154</ele>
        <time>2022-09-05T11:34:09Z</time>
      </trkpt>
      <trkpt lat="46.91622" lon="-0.89729">
        <ele>152</ele>
        <time>2022-09-05T11:34:21Z</time>
      </trkpt>
      <trkpt lat="46.91607" lon="-0.89703">
        <ele>152</ele>
        <time>2022-09-05T11:34:26Z</time>
      </trkpt>
      <trkpt lat="46.91587" lon="-0.89678">
        <ele>152</ele>
        <time>2022-09-05T11:34:30Z</time>
      </trkpt>
      <trkpt lat="46.91576" lon="-0.89669">
        <ele>152</ele>
        <time>2022-09-05T11:34:33Z</time>
      </trkpt>
      <trkpt lat="46.91562" lon="-0.89661">
        <ele>152</ele>
        <time>2022-09-05T11:34:35Z</time>
      </trkpt>
      <trkpt lat="46.91451" lon="-0.89616">
        <ele>153</ele>
        <time>2022-09-05T11:34:56Z</time>
      </trkpt>
      <trkpt lat="46.91431" lon="-0.89603">
        <ele>153</ele>
        <time>2022-09-05T11:35:00Z</time>
      </trkpt>
      <trkpt lat="46.9137" lon="-0.89555">
        <ele>156</ele>
        <time>2022-09-05T11:35:12Z</time>
      </trkpt>
      <trkpt lat="46.91334" lon="-0.89529">
        <ele>156</ele>
        <time>2022-09-05T11:35:19Z</time>
      </trkpt>
      <trkpt lat="46.91316" lon="-0.89521">
        <ele>157</ele>
        <time>2022-09-05T11:35:22Z</time>
      </trkpt>
      <trkpt lat="46.91285" lon="-0.89517">
        <ele>157</ele>
        <time>2022-09-05T11:35:28Z</time>
      </trkpt>
      <trkpt lat="46.91261" lon="-0.89522">
        <ele>158</ele>
        <time>2022-09-05T11:35:32Z</time>
      </trkpt>
      <trkpt lat="46.91228" lon="-0.89539">
        <ele>159</ele>
        <time>2022-09-05T11:35:38Z</time>
      </trkpt>
      <trkpt lat="46.90814" lon="-0.89838">
        <ele>180</ele>
        <time>2022-09-05T11:37:01Z</time>
      </trkpt>
      <trkpt lat="46.90782" lon="-0.89855">
        <ele>182</ele>
        <time>2022-09-05T11:37:07Z</time>
      </trkpt>
      <trkpt lat="46.90763" lon="-0.89861">
        <ele>183</ele>
        <time>2022-09-05T11:37:10Z</time>
      </trkpt>
      <trkpt lat="46.90647" lon="-0.89873">
        <ele>184</ele>
        <time>2022-09-05T11:37:31Z</time>
      </trkpt>
      <trkpt lat="46.90538" lon="-0.89871">
        <ele>184</ele>
        <time>2022-09-05T11:37:50Z</time>
      </trkpt>
      <trkpt lat="46.9039" lon="-0.89863">
        <ele>192</ele>
        <time>2022-09-05T11:38:17Z</time>
      </trkpt>
      <trkpt lat="46.90352" lon="-0.89865">
        <ele>194</ele>
        <time>2022-09-05T11:38:23Z</time>
      </trkpt>
      <trkpt lat="46.90255" lon="-0.8989">
        <ele>197</ele>
        <time>2022-09-05T11:38:41Z</time>
      </trkpt>
      <trkpt lat="46.90223" lon="-0.89896">
        <ele>196</ele>
        <time>2022-09-05T11:38:47Z</time>
      </trkpt>
      <trkpt lat="46.90194" lon="-0.89899">
        <ele>195</ele>
        <time>2022-09-05T11:38:52Z</time>
      </trkpt>
      <trkpt lat="46.90136" lon="-0.89892">
        <ele>194</ele>
        <time>2022-09-05T11:39:02Z</time>
      </trkpt>
      <trkpt lat="46.89916" lon="-0.89826">
        <ele>195</ele>
        <time>2022-09-05T11:39:42Z</time>
      </trkpt>
      <trkpt lat="46.89877" lon="-0.89823">
        <ele>193</ele>
        <time>2022-09-05T11:39:49Z</time>
      </trkpt>
      <trkpt lat="46.89844" lon="-0.89826">
        <ele>192</ele>
        <time>2022-09-05T11:39:55Z</time>
      </trkpt>
      <trkpt lat="46.89809" lon="-0.89836">
        <ele>190</ele>
        <time>2022-09-05T11:40:01Z</time>
      </trkpt>
      <trkpt lat="46.89779" lon="-0.89849">
        <ele>189</ele>
        <time>2022-09-05T11:40:07Z</time>
      </trkpt>
      <trkpt lat="46.89253" lon="-0.90116">
        <ele>184</ele>
        <time>2022-09-05T11:41:46Z</time>
      </trkpt>
      <trkpt lat="46.89102" lon="-0.90196">
        <ele>186</ele>
        <time>2022-09-05T11:42:14Z</time>
      </trkpt>
      <trkpt lat="46.89068" lon="-0.90211">
        <ele>187</ele>
        <time>2022-09-05T11:42:21Z</time>
      </trkpt>
      <trkpt lat="46.89016" lon="-0.90225">
        <ele>185</ele>
        <time>2022-09-05T11:42:30Z</time>
      </trkpt>
      <trkpt lat="46.88985" lon="-0.90229">
        <ele>185</ele>
        <time>2022-09-05T11:42:36Z</time>
      </trkpt>
      <trkpt lat="46.88956" lon="-0.90231">
        <ele>187</ele>
        <time>2022-09-05T11:42:41Z</time>
      </trkpt>
      <trkpt lat="46.88898" lon="-0.90228">
        <ele>189</ele>
        <time>2022-09-05T11:42:51Z</time>
      </trkpt>
      <trkpt lat="46.88805" lon="-0.90207">
        <ele>194</ele>
        <time>2022-09-05T11:43:08Z</time>
      </trkpt>
      <trkpt lat="46.88713" lon="-0.90181">
        <ele>198</ele>
        <time>2022-09-05T11:43:25Z</time>
      </trkpt>
      <trkpt lat="46.8869" lon="-0.90172">
        <ele>199</ele>
        <time>2022-09-05T11:43:29Z</time>
      </trkpt>
      <trkpt lat="46.88638" lon="-0.90158">
        <ele>203</ele>
        <time>2022-09-05T11:43:38Z</time>
      </trkpt>
      <trkpt lat="46.88617" lon="-0.90152">
        <ele>204</ele>
        <time>2022-09-05T11:43:42Z</time>
      </trkpt>
      <trkpt lat="46.886" lon="-0.90142">
        <ele>204</ele>
        <time>2022-09-05T11:43:45Z</time>
      </trkpt>
      <trkpt lat="46.88588" lon="-0.90132">
        <ele>205</ele>
        <time>2022-09-05T11:43:48Z</time>
      </trkpt>
      <trkpt lat="46.88558" lon="-0.90154">
        <ele>206</ele>
        <time>2022-09-05T11:43:54Z</time>
      </trkpt>
      <trkpt lat="46.8854" lon="-0.90159">
        <ele>207</ele>
        <time>2022-09-05T11:43:57Z</time>
      </trkpt>
      <trkpt lat="46.88496" lon="-0.90158">
        <ele>209</ele>
        <time>2022-09-05T11:44:05Z</time>
      </trkpt>
      <trkpt lat="46.88488" lon="-0.9016">
        <ele>208</ele>
        <time>2022-09-05T11:44:06Z</time>
      </trkpt>
      <trkpt lat="46.88474" lon="-0.90169">
        <ele>208</ele>
        <time>2022-09-05T11:44:09Z</time>
      </trkpt>
      <trkpt lat="46.88469" lon="-0.90176">
        <ele>208</ele>
        <time>2022-09-05T11:44:10Z</time>
      </trkpt>
      <trkpt lat="46.88459" lon="-0.90201">
        <ele>208</ele>
        <time>2022-09-05T11:44:14Z</time>
      </trkpt>
      <trkpt lat="46.88438" lon="-0.90267">
        <ele>209</ele>
        <time>2022-09-05T11:44:23Z</time>
      </trkpt>
      <trkpt lat="46.88396" lon="-0.90434">
        <ele>211</ele>
        <time>2022-09-05T11:44:44Z</time>
      </trkpt>
      <trkpt lat="46.88385" lon="-0.90505">
        <ele>211</ele>
        <time>2022-09-05T11:44:53Z</time>
      </trkpt>
      <trkpt lat="46.88362" lon="-0.90599">
        <ele>208</ele>
        <time>2022-09-05T11:45:05Z</time>
      </trkpt>
      <trkpt lat="46.88358" lon="-0.90624">
        <ele>207</ele>
        <time>2022-09-05T11:45:08Z</time>
      </trkpt>
      <trkpt lat="46.88354" lon="-0.90685">
        <ele>207</ele>
        <time>2022-09-05T11:45:16Z</time>
      </trkpt>
      <trkpt lat="46.8835" lon="-0.90695">
        <ele>206</ele>
        <time>2022-09-05T11:45:17Z</time>
      </trkpt>
      <trkpt lat="46.88348" lon="-0.90698">
        <ele>206</ele>
        <time>2022-09-05T11:45:18Z</time>
      </trkpt>
      <trkpt lat="46.88359" lon="-0.90744">
        <ele>207</ele>
        <time>2022-09-05T11:45:24Z</time>
      </trkpt>
      <trkpt lat="46.88365" lon="-0.90783">
        <ele>208</ele>
        <time>2022-09-05T11:45:29Z</time>
      </trkpt>
      <trkpt lat="46.88367" lon="-0.90812">
        <ele>208</ele>
        <time>2022-09-05T11:45:32Z</time>
      </trkpt>
      <trkpt lat="46.88363" lon="-0.90858">
        <ele>208</ele>
        <time>2022-09-05T11:45:38Z</time>
      </trkpt>
      <trkpt lat="46.88339" lon="-0.90958">
        <ele>206</ele>
        <time>2022-09-05T11:45:51Z</time>
      </trkpt>
      <trkpt lat="46.88336" lon="-0.90998">
        <ele>205</ele>
        <time>2022-09-05T11:45:56Z</time>
      </trkpt>
      <trkpt lat="46.88338" lon="-0.91016">
        <ele>205</ele>
        <time>2022-09-05T11:45:58Z</time>
      </trkpt>
      <trkpt lat="46.88343" lon="-0.9103">
        <ele>206</ele>
        <time>2022-09-05T11:46:00Z</time>
      </trkpt>
      <trkpt lat="46.88344" lon="-0.91046">
        <ele>206</ele>
        <time>2022-09-05T11:46:02Z</time>
      </trkpt>
      <trkpt lat="46.88339" lon="-0.9106">
        <ele>206</ele>
        <time>2022-09-05T11:46:04Z</time>
      </trkpt>
      <trkpt lat="46.88334" lon="-0.91067">
        <ele>206</ele>
        <time>2022-09-05T11:46:05Z</time>
      </trkpt>
      <trkpt lat="46.88328" lon="-0.91071">
        <ele>206</ele>
        <time>2022-09-05T11:46:06Z</time>
      </trkpt>
      <trkpt lat="46.88321" lon="-0.91072">
        <ele>206</ele>
        <time>2022-09-05T11:46:07Z</time>
      </trkpt>
      <trkpt lat="46.8828" lon="-0.91166">
        <ele>209</ele>
        <time>2022-09-05T11:46:21Z</time>
      </trkpt>
      <trkpt lat="46.88217" lon="-0.91275">
        <ele>210</ele>
        <time>2022-09-05T11:46:38Z</time>
      </trkpt>
      <trkpt lat="46.88187" lon="-0.91313">
        <ele>208</ele>
        <time>2022-09-05T11:46:45Z</time>
      </trkpt>
      <trkpt lat="46.88101" lon="-0.91411">
        <ele>207</ele>
        <time>2022-09-05T11:47:05Z</time>
      </trkpt>
      <trkpt lat="46.88064" lon="-0.91467">
        <ele>206</ele>
        <time>2022-09-05T11:47:14Z</time>
      </trkpt>
      <trkpt lat="46.88045" lon="-0.91505">
        <ele>206</ele>
        <time>2022-09-05T11:47:20Z</time>
      </trkpt>
      <trkpt lat="46.87944" lon="-0.91729">
        <ele>202</ele>
        <time>2022-09-05T11:47:52Z</time>
      </trkpt>
      <trkpt lat="46.87931" lon="-0.91762">
        <ele>201</ele>
        <time>2022-09-05T11:47:57Z</time>
      </trkpt>
      <trkpt lat="46.87907" lon="-0.91829">
        <ele>198</ele>
        <time>2022-09-05T11:48:06Z</time>
      </trkpt>
      <trkpt lat="46.87812" lon="-0.92111">
        <ele>194</ele>
        <time>2022-09-05T11:48:44Z</time>
      </trkpt>
      <trkpt lat="46.878" lon="-0.92151">
        <ele>195</ele>
        <time>2022-09-05T11:48:50Z</time>
      </trkpt>
      <trkpt lat="46.87791" lon="-0.92192">
        <ele>195</ele>
        <time>2022-09-05T11:48:55Z</time>
      </trkpt>
      <trkpt lat="46.87762" lon="-0.9235">
        <ele>195</ele>
        <time>2022-09-05T11:49:15Z</time>
      </trkpt>
      <trkpt lat="46.87753" lon="-0.92387">
        <ele>194</ele>
        <time>2022-09-05T11:49:20Z</time>
      </trkpt>
      <trkpt lat="46.87739" lon="-0.9242">
        <ele>193</ele>
        <time>2022-09-05T11:49:24Z</time>
      </trkpt>
      <trkpt lat="46.87677" lon="-0.92536">
        <ele>190</ele>
        <time>2022-09-05T11:49:42Z</time>
      </trkpt>
      <trkpt lat="46.87659" lon="-0.92575">
        <ele>189</ele>
        <time>2022-09-05T11:49:48Z</time>
      </trkpt>
      <trkpt lat="46.87651" lon="-0.92609">
        <ele>189</ele>
        <time>2022-09-05T11:49:52Z</time>
      </trkpt>
      <trkpt lat="46.87648" lon="-0.92626">
        <ele>189</ele>
        <time>2022-09-05T11:49:55Z</time>
      </trkpt>
      <trkpt lat="46.87649" lon="-0.9264">
        <ele>190</ele>
        <time>2022-09-05T11:49:56Z</time>
      </trkpt>
      <trkpt lat="46.87654" lon="-0.92654">
        <ele>190</ele>
        <time>2022-09-05T11:49:58Z</time>
      </trkpt>
      <trkpt lat="46.87654" lon="-0.92663">
        <ele>191</ele>
        <time>2022-09-05T11:49:59Z</time>
      </trkpt>
      <trkpt lat="46.87653" lon="-0.92672">
        <ele>191</ele>
        <time>2022-09-05T11:50:00Z</time>
      </trkpt>
      <trkpt lat="46.87647" lon="-0.92681">
        <ele>191</ele>
        <time>2022-09-05T11:50:02Z</time>
      </trkpt>
      <trkpt lat="46.87638" lon="-0.92687">
        <ele>190</ele>
        <time>2022-09-05T11:50:04Z</time>
      </trkpt>
      <trkpt lat="46.87632" lon="-0.92702">
        <ele>190</ele>
        <time>2022-09-05T11:50:06Z</time>
      </trkpt>
      <trkpt lat="46.87621" lon="-0.92754">
        <ele>191</ele>
        <time>2022-09-05T11:50:12Z</time>
      </trkpt>
      <trkpt lat="46.87604" lon="-0.92876">
        <ele>186</ele>
        <time>2022-09-05T11:50:28Z</time>
      </trkpt>
      <trkpt lat="46.87591" lon="-0.92958">
        <ele>181</ele>
        <time>2022-09-05T11:50:38Z</time>
      </trkpt>
      <trkpt lat="46.87556" lon="-0.931">
        <ele>172</ele>
        <time>2022-09-05T11:50:56Z</time>
      </trkpt>
      <trkpt lat="46.87543" lon="-0.93135">
        <ele>170</ele>
        <time>2022-09-05T11:51:01Z</time>
      </trkpt>
      <trkpt lat="46.87531" lon="-0.93159">
        <ele>168</ele>
        <time>2022-09-05T11:51:05Z</time>
      </trkpt>
      <trkpt lat="46.87498" lon="-0.93201">
        <ele>163</ele>
        <time>2022-09-05T11:51:12Z</time>
      </trkpt>
      <trkpt lat="46.87487" lon="-0.93218">
        <ele>162</ele>
        <time>2022-09-05T11:51:15Z</time>
      </trkpt>
      <trkpt lat="46.8747" lon="-0.93251">
        <ele>161</ele>
        <time>2022-09-05T11:51:20Z</time>
      </trkpt>
      <trkpt lat="46.8746" lon="-0.93278">
        <ele>160</ele>
        <time>2022-09-05T11:51:24Z</time>
      </trkpt>
      <trkpt lat="46.87451" lon="-0.93323">
        <ele>159</ele>
        <time>2022-09-05T11:51:30Z</time>
      </trkpt>
      <trkpt lat="46.87443" lon="-0.93435">
        <ele>156</ele>
        <time>2022-09-05T11:51:43Z</time>
      </trkpt>
      <trkpt lat="46.87436" lon="-0.93582">
        <ele>153</ele>
        <time>2022-09-05T11:52:01Z</time>
      </trkpt>
      <trkpt lat="46.8743" lon="-0.93681">
        <ele>151</ele>
        <time>2022-09-05T11:52:13Z</time>
      </trkpt>
      <trkpt lat="46.87426" lon="-0.93717">
        <ele>151</ele>
        <time>2022-09-05T11:52:18Z</time>
      </trkpt>
      <trkpt lat="46.87415" lon="-0.93784">
        <ele>149</ele>
        <time>2022-09-05T11:52:26Z</time>
      </trkpt>
      <trkpt lat="46.87262" lon="-0.94569">
        <ele>123</ele>
        <time>2022-09-05T11:54:06Z</time>
      </trkpt>
      <trkpt lat="46.87254" lon="-0.94604">
        <ele>122</ele>
        <time>2022-09-05T11:54:10Z</time>
      </trkpt>
      <trkpt lat="46.87202" lon="-0.94879">
        <ele>133</ele>
        <time>2022-09-05T11:54:45Z</time>
      </trkpt>
      <trkpt lat="46.87198" lon="-0.94913">
        <ele>134</ele>
        <time>2022-09-05T11:54:49Z</time>
      </trkpt>
      <trkpt lat="46.87196" lon="-0.94969">
        <ele>137</ele>
        <time>2022-09-05T11:54:56Z</time>
      </trkpt>
      <trkpt lat="46.87197" lon="-0.95003">
        <ele>139</ele>
        <time>2022-09-05T11:55:00Z</time>
      </trkpt>
      <trkpt lat="46.872" lon="-0.95052">
        <ele>140</ele>
        <time>2022-09-05T11:55:06Z</time>
      </trkpt>
      <trkpt lat="46.87206" lon="-0.95091">
        <ele>142</ele>
        <time>2022-09-05T11:55:11Z</time>
      </trkpt>
      <trkpt lat="46.87213" lon="-0.95127">
        <ele>143</ele>
        <time>2022-09-05T11:55:15Z</time>
      </trkpt>
      <trkpt lat="46.87229" lon="-0.95185">
        <ele>145</ele>
        <time>2022-09-05T11:55:23Z</time>
      </trkpt>
      <trkpt lat="46.87283" lon="-0.95333">
        <ele>149</ele>
        <time>2022-09-05T11:55:43Z</time>
      </trkpt>
      <trkpt lat="46.873" lon="-0.95396">
        <ele>152</ele>
        <time>2022-09-05T11:55:52Z</time>
      </trkpt>
      <trkpt lat="46.87308" lon="-0.9545">
        <ele>153</ele>
        <time>2022-09-05T11:55:58Z</time>
      </trkpt>
      <trkpt lat="46.87312" lon="-0.95518">
        <ele>152</ele>
        <time>2022-09-05T11:56:07Z</time>
      </trkpt>
      <trkpt lat="46.87311" lon="-0.95551">
        <ele>151</ele>
        <time>2022-09-05T11:56:11Z</time>
      </trkpt>
      <trkpt lat="46.87283" lon="-0.95879">
        <ele>149</ele>
        <time>2022-09-05T11:56:51Z</time>
      </trkpt>
      <trkpt lat="46.87274" lon="-0.95957">
        <ele>149</ele>
        <time>2022-09-05T11:57:00Z</time>
      </trkpt>
      <trkpt lat="46.87266" lon="-0.95997">
        <ele>149</ele>
        <time>2022-09-05T11:57:05Z</time>
      </trkpt>
      <trkpt lat="46.87246" lon="-0.96059">
        <ele>147</ele>
        <time>2022-09-05T11:57:14Z</time>
      </trkpt>
      <trkpt lat="46.87062" lon="-0.96534">
        <ele>142</ele>
        <time>2022-09-05T11:58:20Z</time>
      </trkpt>
      <trkpt lat="46.87048" lon="-0.96579">
        <ele>143</ele>
        <time>2022-09-05T11:58:26Z</time>
      </trkpt>
      <trkpt lat="46.87037" lon="-0.96619">
        <ele>143</ele>
        <time>2022-09-05T11:58:31Z</time>
      </trkpt>
      <trkpt lat="46.87018" lon="-0.96705">
        <ele>143</ele>
        <time>2022-09-05T11:58:42Z</time>
      </trkpt>
      <trkpt lat="46.87009" lon="-0.96763">
        <ele>143</ele>
        <time>2022-09-05T11:58:50Z</time>
      </trkpt>
      <trkpt lat="46.87001" lon="-0.96834">
        <ele>144</ele>
        <time>2022-09-05T11:58:58Z</time>
      </trkpt>
      <trkpt lat="46.86985" lon="-0.97194">
        <ele>143</ele>
        <time>2022-09-05T11:59:42Z</time>
      </trkpt>
      <trkpt lat="46.86982" lon="-0.9725">
        <ele>142</ele>
        <time>2022-09-05T11:59:49Z</time>
      </trkpt>
      <trkpt lat="46.86978" lon="-0.97274">
        <ele>142</ele>
        <time>2022-09-05T11:59:52Z</time>
      </trkpt>
      <trkpt lat="46.86978" lon="-0.97304">
        <ele>141</ele>
        <time>2022-09-05T11:59:56Z</time>
      </trkpt>
      <trkpt lat="46.86982" lon="-0.97322">
        <ele>141</ele>
        <time>2022-09-05T11:59:58Z</time>
      </trkpt>
      <trkpt lat="46.86985" lon="-0.97327">
        <ele>141</ele>
        <time>2022-09-05T11:59:59Z</time>
      </trkpt>
      <trkpt lat="46.86988" lon="-0.97339">
        <ele>140</ele>
        <time>2022-09-05T12:00:00Z</time>
      </trkpt>
      <trkpt lat="46.86988" lon="-0.97347">
        <ele>140</ele>
        <time>2022-09-05T12:00:01Z</time>
      </trkpt>
      <trkpt lat="46.86984" lon="-0.97361">
        <ele>140</ele>
        <time>2022-09-05T12:00:03Z</time>
      </trkpt>
      <trkpt lat="46.8698" lon="-0.97367">
        <ele>140</ele>
        <time>2022-09-05T12:00:04Z</time>
      </trkpt>
      <trkpt lat="46.8697" lon="-0.97372">
        <ele>140</ele>
        <time>2022-09-05T12:00:06Z</time>
      </trkpt>
      <trkpt lat="46.8696" lon="-0.97383">
        <ele>140</ele>
        <time>2022-09-05T12:00:08Z</time>
      </trkpt>
      <trkpt lat="46.86945" lon="-0.97416">
        <ele>139</ele>
        <time>2022-09-05T12:00:13Z</time>
      </trkpt>
      <trkpt lat="46.86837" lon="-0.97683">
        <ele>138</ele>
        <time>2022-09-05T12:00:51Z</time>
      </trkpt>
      <trkpt lat="46.86692" lon="-0.98032">
        <ele>144</ele>
        <time>2022-09-05T12:01:41Z</time>
      </trkpt>
      <trkpt lat="46.86676" lon="-0.98082">
        <ele>145</ele>
        <time>2022-09-05T12:01:47Z</time>
      </trkpt>
      <trkpt lat="46.8666" lon="-0.98125">
        <ele>145</ele>
        <time>2022-09-05T12:01:53Z</time>
      </trkpt>
      <trkpt lat="46.86654" lon="-0.98137">
        <ele>146</ele>
        <time>2022-09-05T12:01:55Z</time>
      </trkpt>
      <trkpt lat="46.86639" lon="-0.98155">
        <ele>147</ele>
        <time>2022-09-05T12:01:59Z</time>
      </trkpt>
      <trkpt lat="46.86626" lon="-0.9816">
        <ele>149</ele>
        <time>2022-09-05T12:02:01Z</time>
      </trkpt>
      <trkpt lat="46.86629" lon="-0.98233">
        <ele>147</ele>
        <time>2022-09-05T12:02:10Z</time>
      </trkpt>
      <trkpt lat="46.86631" lon="-0.98434">
        <ele>145</ele>
        <time>2022-09-05T12:02:34Z</time>
      </trkpt>
      <trkpt lat="46.86623" lon="-0.98433">
        <ele>146</ele>
        <time>2022-09-05T12:02:36Z</time>
      </trkpt>
      <trkpt lat="46.86617" lon="-0.98437">
        <ele>147</ele>
        <time>2022-09-05T12:02:37Z</time>
      </trkpt>
      <trkpt lat="46.86611" lon="-0.98442">
        <ele>148</ele>
        <time>2022-09-05T12:02:38Z</time>
      </trkpt>
      <trkpt lat="46.86601" lon="-0.98456">
        <ele>149</ele>
        <time>2022-09-05T12:02:41Z</time>
      </trkpt>
      <trkpt lat="46.86563" lon="-0.98597">
        <ele>148</ele>
        <time>2022-09-05T12:02:59Z</time>
      </trkpt>
      <trkpt lat="46.86527" lon="-0.98706">
        <ele>145</ele>
        <time>2022-09-05T12:03:14Z</time>
      </trkpt>
      <trkpt lat="46.86514" lon="-0.98737">
        <ele>145</ele>
        <time>2022-09-05T12:03:18Z</time>
      </trkpt>
      <trkpt lat="46.86448" lon="-0.98872">
        <ele>139</ele>
        <time>2022-09-05T12:03:38Z</time>
      </trkpt>
      <trkpt lat="46.8644" lon="-0.98872">
        <ele>139</ele>
        <time>2022-09-05T12:03:40Z</time>
      </trkpt>
      <trkpt lat="46.86437" lon="-0.98874">
        <ele>138</ele>
        <time>2022-09-05T12:03:40Z</time>
      </trkpt>
      <trkpt lat="46.8638" lon="-0.98991">
        <ele>132</ele>
        <time>2022-09-05T12:03:58Z</time>
      </trkpt>
      <trkpt lat="46.86364" lon="-0.99029">
        <ele>131</ele>
        <time>2022-09-05T12:04:03Z</time>
      </trkpt>
      <trkpt lat="46.86349" lon="-0.99071">
        <ele>130</ele>
        <time>2022-09-05T12:04:09Z</time>
      </trkpt>
      <trkpt lat="46.86335" lon="-0.99116">
        <ele>129</ele>
        <time>2022-09-05T12:04:15Z</time>
      </trkpt>
      <trkpt lat="46.86325" lon="-0.9916">
        <ele>128</ele>
        <time>2022-09-05T12:04:21Z</time>
      </trkpt>
      <trkpt lat="46.86312" lon="-0.99223">
        <ele>126</ele>
        <time>2022-09-05T12:04:29Z</time>
      </trkpt>
      <trkpt lat="46.8622" lon="-0.99703">
        <ele>121</ele>
        <time>2022-09-05T12:05:29Z</time>
      </trkpt>
      <trkpt lat="46.86212" lon="-0.99725">
        <ele>120</ele>
        <time>2022-09-05T12:05:32Z</time>
      </trkpt>
      <trkpt lat="46.86221" lon="-0.99734">
        <ele>120</ele>
        <time>2022-09-05T12:05:34Z</time>
      </trkpt>
      <trkpt lat="46.86212" lon="-0.99771">
        <ele>120</ele>
        <time>2022-09-05T12:05:39Z</time>
      </trkpt>
      <trkpt lat="46.86171" lon="-0.99914">
        <ele>118</ele>
        <time>2022-09-05T12:05:58Z</time>
      </trkpt>
      <trkpt lat="46.86052" lon="-1.00363">
        <ele>115</ele>
        <time>2022-09-05T12:06:57Z</time>
      </trkpt>
      <trkpt lat="46.86041" lon="-1.00409">
        <ele>115</ele>
        <time>2022-09-05T12:07:03Z</time>
      </trkpt>
      <trkpt lat="46.8614" lon="-1.00467">
        <ele>116</ele>
        <time>2022-09-05T12:07:22Z</time>
      </trkpt>
      <trkpt lat="46.8617" lon="-1.00489">
        <ele>115</ele>
        <time>2022-09-05T12:07:27Z</time>
      </trkpt>
      <trkpt lat="46.86189" lon="-1.00512">
        <ele>115</ele>
        <time>2022-09-05T12:07:32Z</time>
      </trkpt>
      <trkpt lat="46.86228" lon="-1.00664">
        <ele>117</ele>
        <time>2022-09-05T12:07:52Z</time>
      </trkpt>
      <trkpt lat="46.86234" lon="-1.00681">
        <ele>117</ele>
        <time>2022-09-05T12:07:54Z</time>
      </trkpt>
      <trkpt lat="46.8627" lon="-1.00662">
        <ele>118</ele>
        <time>2022-09-05T12:08:01Z</time>
      </trkpt>
      <trkpt lat="46.86315" lon="-1.00632">
        <ele>119</ele>
        <time>2022-09-05T12:08:10Z</time>
      </trkpt>
      <trkpt lat="46.86335" lon="-1.00614">
        <ele>119</ele>
        <time>2022-09-05T12:08:14Z</time>
      </trkpt>
      <trkpt lat="46.86382" lon="-1.00562">
        <ele>120</ele>
        <time>2022-09-05T12:08:24Z</time>
      </trkpt>
    </trkseg>
  </trk>
</gpx>